Welcome Guest
Log In | Register )
You last visited December 6, 2016, 9:00 am
All times shown are
Eastern Time (GMT-5:00)

Iowa: 10/1 - 10/31/2016

Topic closed. 111 replies. Last post 1 month ago by phantom3.

Page 7 of 8
511
PrintE-mailLink
phantom3's avatar - Lottery-005.jpg
iowa
United States
Member #81631
October 25, 2009
114 Posts
Offline
Posted: October 22, 2016, 7:14 pm - IP Logged

My picks for the eve draw are  #721 569 200 825 012 222 111 458 228 246  Pumpkin

    thamizhpayan's avatar - Lottery-052.jpg

    United States
    Member #173017
    February 13, 2016
    492 Posts
    Offline
    Posted: October 22, 2016, 11:33 pm - IP Logged

    10/23/2016 methods work outs for reference:

     

    KEYS:
    BAYRAM_PREV_DRAW_KEY_METHOD_FULL_KEYS C 10-22-2016 E 6, 5, 4
    BAYRAM_PREV_DRAW_KEY_METHOD_FULL_KEYS C 10-22-2016 M 9, 8, 7

    DIGIT_OUT_PAST_FIVE_DRAWS_FULL_DIGITS E 10-23-2016 E 7, 0
    DIGIT_OUT_PAST_FIVE_DRAWS_FULL_DIGITS M 10-22-2016 M 9
    DIGIT_OUT_PAST_FIVE_DRAWS_FULL_DIGITS M 10-23-2016 M 9


    JUSTAWINNER_KEY_METHOD_FULL_KEYS C 10-22-2016 E 4, 1, 0, 5, 9
    JUSTAWINNER_KEY_METHOD_FULL_KEYS C 10-22-2016 M 5, 9, 8, 4
    JUSTAWINNER_KEY_METHOD_FULL_KEYS E 10-22-2016 E 5, 9, 6, 2
    JUSTAWINNER_KEY_METHOD_FULL_KEYS M 10-22-2016 M 8, 4, 8, 3

    PAIRS:
    LAKERBEN_KNOCKOUT_P3_PAIRS_FULL_PAIRS C 202 10-22-2016 M 44, 46, 44, 48, 46, 48
    LAKERBEN_KNOCKOUT_P3_PAIRS_FULL_PAIRS C 968 10-22-2016 E 46, 49, 47, 64, 61, 63

    PREMOS_PREMIUM_PAIRS_FULL_PAIRS C 10-22-2016 E 62, 63, 64, 65, 66, 73, 74, 75, 76, 77, 84, 85, 86, 87, 88
    PREMOS_PREMIUM_PAIRS_FULL_PAIRS C 10-22-2016 M 36, 37, 38, 39, 30, 47, 48, 49, 40, 41, 58, 59, 50, 51, 52

    WHEELERS_PAIRS_FULL_PAIRS C 10-22-2016 E 96, 18, 30, 52, 74, 98, 10, 32, 54, 76, 68, 80, 02, 24, 46
    WHEELERS_PAIRS_FULL_PAIRS C 10-22-2016 M 20, 42, 64, 86, 08, 22, 44, 66, 88, 00, 02, 24, 46, 68, 80


    PIRATE_PAIRS_FULL_PAIRS C 202 10-22-2016 M 31, 36, 38, 34, 16, 18, 14, 68, 64, 84 30
    PIRATE_PAIRS_FULL_PAIRS C 202 10-22-2016 M 35, 34, 36, 32, 54, 56, 52, 46, 42, 62 10
    PIRATE_PAIRS_FULL_PAIRS C 202 10-22-2016 M 43, 46, 48, 41, 36, 38, 31, 68, 61, 81 14
    PIRATE_PAIRS_FULL_PAIRS C 202 10-22-2016 M 53, 52, 56, 51, 32, 36, 31, 26, 21, 61 7
    PIRATE_PAIRS_FULL_PAIRS C 202 10-22-2016 M 64, 68, 61, 63, 48, 41, 43, 81, 83, 13 21


    PIRATE_PAIRS_FULL_PAIRS C 968 10-22-2016 E 25, 23, 21, 24, 53, 51, 54, 31, 34, 14 7
    PIRATE_PAIRS_FULL_PAIRS C 968 10-22-2016 E 32, 35, 34, 36, 25, 24, 26, 54, 56, 46 10
    PIRATE_PAIRS_FULL_PAIRS C 968 10-22-2016 E 36, 32, 31, 38, 62, 61, 68, 21, 28, 18 30
    PIRATE_PAIRS_FULL_PAIRS C 968 10-22-2016 E 42, 43, 45, 48, 23, 25, 28, 35, 38, 58 14
    PIRATE_PAIRS_FULL_PAIRS C 968 10-22-2016 E 68, 64, 61, 63, 84, 81, 83, 41, 43, 13 21


    PIRATE_PAIRS_FULL_PAIRS E 968 10-22-2016 E 31, 35, 36, 38, 15, 16, 18, 56, 58, 68 10
    PIRATE_PAIRS_FULL_PAIRS E 968 10-22-2016 E 31, 35, 38, 34, 15, 18, 14, 58, 54, 84 7
    PIRATE_PAIRS_FULL_PAIRS E 968 10-22-2016 E 38, 31, 34, 35, 81, 84, 85, 14, 15, 45 14
    PIRATE_PAIRS_FULL_PAIRS E 968 10-22-2016 E 38, 32, 36, 35, 82, 86, 85, 26, 25, 65 30
    PIRATE_PAIRS_FULL_PAIRS E 968 10-22-2016 E 83, 86, 85, 84, 36, 35, 34, 65, 64, 54 21


    PIRATE_PAIRS_FULL_PAIRS M 202 10-22-2016 M 14, 16, 12, 15, 46, 42, 45, 62, 65, 25 30
    PIRATE_PAIRS_FULL_PAIRS M 202 10-22-2016 M 42, 45, 46, 47, 25, 26, 27, 56, 57, 67 10
    PIRATE_PAIRS_FULL_PAIRS M 202 10-22-2016 M 46, 41, 42, 45, 61, 62, 65, 12, 15, 25 21
    PIRATE_PAIRS_FULL_PAIRS M 202 10-22-2016 M 46, 42, 45, 47, 62, 65, 67, 25, 27, 57 14
    PIRATE_PAIRS_FULL_PAIRS M 202 10-22-2016 M 52, 56, 50, 54, 26, 20, 24, 60, 64, 04 7

     

    OVERDUE_ALLPOS_BOTHWAY_PAIR_INFO_FULL_PAIRS C 202 10-22-2016 M 01, 04, 07, 99, 77, 37 21
    OVERDUE_ALLPOS_BOTHWAY_PAIR_INFO_FULL_PAIRS C 202 10-22-2016 M 04, 07 30
    OVERDUE_ALLPOS_BOTHWAY_PAIR_INFO_FULL_PAIRS C 202 10-22-2016 M 88, 01, 02, 03, 04, 49, 07, 09, 99, 55, 14, 59, 17, 66, 68, 27, 77, 37, 39 10
    OVERDUE_ALLPOS_BOTHWAY_PAIR_INFO_FULL_PAIRS C 202 10-22-2016 M 88, 01, 02, 04, 07, 09, 99, 55, 59, 68, 77, 37, 39 14
    OVERDUE_ALLPOS_BOTHWAY_PAIR_INFO_FULL_PAIRS C 202 10-22-2016 M 88, 44, 01, 89, 02, 03, 04, 49, 07, 09, 99, 55, 13, 14, 59, 16, 17, 66, 68, 69, 26, 27, 29, 77, 78, 79, 37, 39 7


    OVERDUE_ALLPOS_BOTHWAY_PAIR_INFO_FULL_PAIRS C 968 10-22-2016 E 00, 88, 44, 01, 89, 03, 04, 49, 07, 08, 09, 99, 55, 13, 14, 59, 16, 17, 66, 68, 69, 26, 27, 29, 77, 78, 79, 37, 39 7
    OVERDUE_ALLPOS_BOTHWAY_PAIR_INFO_FULL_PAIRS C 968 10-22-2016 E 01, 04, 07, 99, 59, 77, 37, 39 21
    OVERDUE_ALLPOS_BOTHWAY_PAIR_INFO_FULL_PAIRS C 968 10-22-2016 E 04, 07, 99 30
    OVERDUE_ALLPOS_BOTHWAY_PAIR_INFO_FULL_PAIRS C 968 10-22-2016 E 88, 01, 03, 04, 07, 09, 99, 55, 59, 66, 68, 77, 37, 39 14
    OVERDUE_ALLPOS_BOTHWAY_PAIR_INFO_FULL_PAIRS C 968 10-22-2016 E 88, 01, 89, 03, 04, 49, 07, 09, 99, 55, 14, 59, 17, 66, 68, 69, 26, 27, 29, 77, 78, 79, 37, 39 10


    OVERDUE_ALLPOS_BOTHWAY_PAIR_INFO_FULL_PAIRS E 968 10-22-2016 E 00, 01, 45, 02, 04, 05, 07, 99, 12, 14, 22, 67, 27, 28, 77, 37, 39 21
    OVERDUE_ALLPOS_BOTHWAY_PAIR_INFO_FULL_PAIRS E 968 10-22-2016 E 00, 88, 01, 89, 45, 02, 46, 47, 04, 05, 06, 07, 09, 99, 55, 12, 57, 14, 59, 22, 66, 67, 68, 27, 28, 77, 79, 37, 39 14
    OVERDUE_ALLPOS_BOTHWAY_PAIR_INFO_FULL_PAIRS E 968 10-22-2016 E 00, 88, 44, 01, 89, 45, 02, 46, 03, 47, 04, 05, 49, 06, 07, 08, 09, 99, 55, 12, 13, 57, 14, 59, 16, 17, 22, 66, 67, 68, 69, 26, 27, 28, 29, 77, 78, 79, 37, 39 7
    OVERDUE_ALLPOS_BOTHWAY_PAIR_INFO_FULL_PAIRS E 968 10-22-2016 E 00, 88, 44, 01, 89, 45, 02, 46, 03, 47, 04, 05, 49, 06, 07, 08, 09, 99, 55, 12, 57, 14, 59, 17, 22, 66, 67, 68, 27, 28, 77, 78, 79, 37, 39 10
    OVERDUE_ALLPOS_BOTHWAY_PAIR_INFO_FULL_PAIRS E 968 10-22-2016 E 04, 05, 07, 99, 12, 14, 22, 67, 28 30
    OVERDUE_ALLPOS_BOTHWAY_PAIR_INFO_FULL_PAIRS E 968 10-22-2016 E 99, 22 45


    OVERDUE_ALLPOS_BOTHWAY_PAIR_INFO_FULL_PAIRS M 202 10-22-2016 M 01, 03, 07, 23, 29, 77, 37 45
    OVERDUE_ALLPOS_BOTHWAY_PAIR_INFO_FULL_PAIRS M 202 10-22-2016 M 01, 77 60
    OVERDUE_ALLPOS_BOTHWAY_PAIR_INFO_FULL_PAIRS M 202 10-22-2016 M 88, 01, 02, 03, 04, 48, 49, 07, 09, 11, 99, 55, 13, 14, 58, 59, 16, 17, 18, 19, 66, 23, 68, 69, 26, 27, 29, 33, 77, 36, 37, 38, 39 10
    OVERDUE_ALLPOS_BOTHWAY_PAIR_INFO_FULL_PAIRS M 202 10-22-2016 M 88, 01, 02, 03, 04, 48, 49, 07, 09, 11, 99, 55, 13, 59, 19, 23, 68, 69, 29, 33, 77, 36, 37, 38, 39 14
    OVERDUE_ALLPOS_BOTHWAY_PAIR_INFO_FULL_PAIRS M 202 10-22-2016 M 88, 01, 03, 04, 07, 09, 55, 23, 69, 29, 77, 37 30
    OVERDUE_ALLPOS_BOTHWAY_PAIR_INFO_FULL_PAIRS M 202 10-22-2016 M 88, 01, 03, 04, 48, 07, 09, 99, 55, 59, 19, 23, 69, 29, 33, 77, 37, 38 21
    OVERDUE_ALLPOS_BOTHWAY_PAIR_INFO_FULL_PAIRS M 202 10-22-2016 M 88, 44, 01, 89, 02, 03, 04, 48, 49, 07, 09, 11, 99, 55, 13, 14, 58, 59, 16, 17, 18, 19, 66, 23, 24, 68, 69, 26, 27, 29, 33, 77, 78, 79, 36, 37, 38, 39 7


    OVERDUE_ALLPOS_STRAIGHT_PAIR_INFO_FULL_PAIRS C 202 10-22-2016 M 01, 02, 04, 49, 07, 09, 91, 92, 93, 10, 54, 99, 12, 15, 59, 68, 69, 27, 28, 70, 73, 30, 76, 77, 37, 40, 85 21
    OVERDUE_ALLPOS_STRAIGHT_PAIR_INFO_FULL_PAIRS C 202 10-22-2016 M 68, 49, 92, 70, 54, 40 45
    OVERDUE_ALLPOS_STRAIGHT_PAIR_INFO_FULL_PAIRS C 202 10-22-2016 M 68, 69, 04, 49, 07, 09, 92, 70, 93, 30, 54, 76, 59, 37, 40 30
    OVERDUE_ALLPOS_STRAIGHT_PAIR_INFO_FULL_PAIRS C 202 10-22-2016 M 68, 70 60
    OVERDUE_ALLPOS_STRAIGHT_PAIR_INFO_FULL_PAIRS C 202 10-22-2016 M 88, 01, 02, 03, 04, 48, 05, 49, 06, 07, 08, 09, 90, 91, 92, 93, 94, 95, 97, 10, 98, 54, 99, 55, 12, 13, 14, 15, 59, 16, 17, 18, 62, 20, 66, 68, 69, 27, 28, 70, 71, 72, 73, 30, 74, 75, 76, 77, 78, 37, 39, 40, 41, 85, 86 10
    OVERDUE_ALLPOS_STRAIGHT_PAIR_INFO_FULL_PAIRS C 202 10-22-2016 M 88, 01, 02, 04, 05, 49, 06, 07, 09, 90, 91, 92, 93, 95, 97, 10, 98, 54, 99, 55, 12, 13, 15, 59, 20, 68, 69, 27, 28, 70, 73, 30, 75, 76, 77, 37, 39, 40, 41, 85, 86 14
    OVERDUE_ALLPOS_STRAIGHT_PAIR_INFO_FULL_PAIRS C 202 10-22-2016 M 88, 44, 01, 89, 02, 46, 03, 04, 48, 05, 49, 06, 07, 08, 09, 90, 91, 92, 93, 94, 95, 96, 97, 53, 10, 98, 54, 99, 55, 12, 13, 14, 15, 59, 16, 17, 18, 61, 62, 63, 20, 66, 68, 69, 26, 27, 28, 29, 70, 71, 72, 73, 30, 74, 31, 75, 76, 77, 78, 79, 37, 38, 39, 40, 41, 85, 42, 86, 87 7


    OVERDUE_ALLPOS_STRAIGHT_PAIR_INFO_FULL_PAIRS C 968 10-22-2016 E 00, 88, 44, 01, 89, 46, 03, 04, 48, 05, 49, 06, 07, 08, 09, 90, 91, 92, 93, 94, 95, 96, 97, 53, 10, 98, 54, 99, 55, 12, 13, 14, 15, 59, 16, 17, 18, 61, 62, 63, 66, 68, 69, 26, 27, 28, 29, 70, 71, 72, 73, 30, 74, 31, 75, 76, 77, 78, 79, 37, 38, 39, 80, 40, 41, 85, 42, 86, 87 7
    OVERDUE_ALLPOS_STRAIGHT_PAIR_INFO_FULL_PAIRS C 968 10-22-2016 E 01, 04, 49, 07, 09, 91, 92, 93, 95, 97, 10, 54, 99, 12, 15, 59, 68, 69, 27, 28, 70, 73, 30, 75, 76, 77, 37, 39, 40, 85 21
    OVERDUE_ALLPOS_STRAIGHT_PAIR_INFO_FULL_PAIRS C 968 10-22-2016 E 68, 49, 92, 70, 93, 54, 37, 40 45
    OVERDUE_ALLPOS_STRAIGHT_PAIR_INFO_FULL_PAIRS C 968 10-22-2016 E 68, 69, 04, 49, 07, 09, 92, 70, 93, 30, 54, 76, 99, 59, 37, 40 30
    OVERDUE_ALLPOS_STRAIGHT_PAIR_INFO_FULL_PAIRS C 968 10-22-2016 E 68, 70 60
    OVERDUE_ALLPOS_STRAIGHT_PAIR_INFO_FULL_PAIRS C 968 10-22-2016 E 88, 01, 03, 04, 05, 49, 06, 07, 08, 09, 90, 91, 92, 93, 95, 97, 10, 98, 54, 99, 55, 12, 13, 15, 59, 16, 66, 68, 69, 27, 28, 70, 73, 30, 75, 76, 77, 37, 39, 40, 41, 85, 86 14
    OVERDUE_ALLPOS_STRAIGHT_PAIR_INFO_FULL_PAIRS C 968 10-22-2016 E 88, 01, 89, 03, 04, 48, 05, 49, 06, 07, 08, 09, 90, 91, 92, 93, 94, 95, 96, 97, 10, 98, 54, 99, 55, 12, 13, 14, 15, 59, 16, 17, 18, 62, 66, 68, 69, 26, 27, 28, 29, 70, 71, 72, 73, 30, 74, 75, 76, 77, 78, 79, 37, 39, 40, 41, 85, 86, 87 10


    OVERDUE_ALLPOS_STRAIGHT_PAIR_INFO_FULL_PAIRS E 968 10-22-2016 E 00, 01, 89, 45, 02, 46, 47, 04, 05, 49, 07, 09, 91, 92, 93, 50, 10, 54, 99, 12, 13, 57, 14, 15, 59, 16, 60, 62, 20, 21, 22, 67, 68, 25, 69, 27, 28, 70, 71, 72, 73, 30, 76, 77, 79, 37, 39, 80, 82, 40, 41, 85, 42, 87 21
    OVERDUE_ALLPOS_STRAIGHT_PAIR_INFO_FULL_PAIRS E 968 10-22-2016 E 00, 88, 01, 89, 45, 02, 46, 47, 04, 05, 49, 06, 07, 09, 90, 91, 92, 93, 50, 95, 97, 10, 98, 54, 99, 55, 12, 13, 57, 14, 15, 59, 16, 60, 62, 20, 64, 21, 65, 22, 66, 67, 68, 25, 69, 27, 28, 70, 71, 72, 73, 30, 74, 75, 76, 77, 79, 37, 39, 80, 82, 40, 41, 85, 42, 86, 87 14
    OVERDUE_ALLPOS_STRAIGHT_PAIR_INFO_FULL_PAIRS E 968 10-22-2016 E 00, 88, 44, 01, 89, 45, 02, 46, 03, 47, 04, 48, 05, 49, 06, 07, 08, 09, 90, 91, 92, 93, 94, 50, 95, 96, 97, 53, 10, 98, 54, 99, 55, 12, 13, 57, 14, 15, 59, 16, 17, 18, 60, 61, 62, 63, 20, 64, 21, 65, 22, 66, 67, 68, 25, 69, 26, 27, 28, 29, 70, 71, 72, 73, 30, 74, 31, 75, 76, 77, 78, 79, 37, 38, 39, 80, 82, 40, 41, 85, 42, 86, 87 7
    OVERDUE_ALLPOS_STRAIGHT_PAIR_INFO_FULL_PAIRS E 968 10-22-2016 E 00, 88, 44, 01, 89, 45, 02, 46, 03, 47, 04, 48, 05, 49, 06, 07, 08, 09, 90, 91, 92, 93, 94, 50, 95, 97, 10, 98, 54, 99, 55, 12, 13, 57, 14, 15, 59, 16, 17, 18, 60, 62, 20, 64, 21, 65, 22, 66, 67, 68, 25, 69, 27, 28, 70, 71, 72, 73, 30, 74, 75, 76, 77, 78, 79, 37, 39, 80, 82, 40, 41, 85, 42, 86, 87 10
    OVERDUE_ALLPOS_STRAIGHT_PAIR_INFO_FULL_PAIRS E 968 10-22-2016 E 67, 46, 68, 25, 69, 49, 92, 70, 72, 12, 15, 16, 42 60
    OVERDUE_ALLPOS_STRAIGHT_PAIR_INFO_FULL_PAIRS E 968 10-22-2016 E 89, 46, 47, 04, 05, 49, 07, 09, 91, 92, 93, 50, 54, 99, 12, 13, 57, 14, 15, 59, 16, 21, 22, 67, 68, 25, 69, 28, 70, 71, 72, 30, 76, 37, 80, 82, 40, 41, 42, 87 30
    OVERDUE_ALLPOS_STRAIGHT_PAIR_INFO_FULL_PAIRS E 968 10-22-2016 E 89, 46, 47, 49, 92, 54, 99, 12, 13, 57, 15, 16, 22, 67, 68, 25, 69, 70, 71, 72, 82, 40, 41, 42 45


    OVERDUE_ALLPOS_STRAIGHT_PAIR_INFO_FULL_PAIRS M 202 10-22-2016 M 01, 03, 49, 07, 92, 93, 52, 97, 10, 54, 17, 23, 68, 29, 70, 73, 30, 75, 32, 77, 37, 40, 84 45
    OVERDUE_ALLPOS_STRAIGHT_PAIR_INFO_FULL_PAIRS M 202 10-22-2016 M 01, 68, 03, 70, 52, 97, 10, 54, 32, 77, 37, 84 60
    OVERDUE_ALLPOS_STRAIGHT_PAIR_INFO_FULL_PAIRS M 202 10-22-2016 M 88, 01, 02, 03, 04, 48, 05, 49, 06, 07, 08, 09, 90, 91, 92, 93, 94, 95, 96, 52, 97, 53, 10, 98, 54, 11, 99, 55, 12, 13, 14, 58, 15, 59, 16, 17, 18, 19, 61, 62, 63, 20, 66, 23, 24, 68, 69, 26, 27, 28, 29, 70, 71, 72, 73, 30, 74, 31, 75, 32, 76, 33, 77, 34, 78, 36, 37, 38, 39, 81, 83, 40, 84, 41, 85, 86 10
    OVERDUE_ALLPOS_STRAIGHT_PAIR_INFO_FULL_PAIRS M 202 10-22-2016 M 88, 01, 02, 03, 04, 48, 05, 49, 06, 07, 08, 09, 90, 91, 92, 93, 94, 95, 96, 52, 97, 53, 10, 98, 54, 11, 99, 55, 12, 13, 15, 59, 17, 18, 19, 61, 63, 20, 23, 24, 68, 69, 26, 27, 28, 29, 70, 73, 30, 31, 75, 32, 76, 33, 77, 34, 78, 36, 37, 38, 39, 83, 40, 84, 41, 85, 86 14
    OVERDUE_ALLPOS_STRAIGHT_PAIR_INFO_FULL_PAIRS M 202 10-22-2016 M 88, 01, 02, 03, 04, 48, 49, 07, 09, 90, 91, 92, 93, 95, 96, 52, 97, 53, 10, 98, 54, 99, 55, 12, 15, 59, 17, 18, 19, 23, 24, 68, 69, 26, 27, 28, 29, 70, 73, 30, 31, 75, 32, 76, 33, 77, 78, 36, 37, 38, 83, 40, 84, 85 21
    OVERDUE_ALLPOS_STRAIGHT_PAIR_INFO_FULL_PAIRS M 202 10-22-2016 M 88, 01, 02, 03, 04, 49, 07, 09, 90, 92, 93, 96, 52, 97, 53, 10, 98, 54, 55, 59, 17, 23, 68, 69, 29, 70, 73, 30, 75, 32, 76, 77, 37, 83, 40, 84, 85 30
    OVERDUE_ALLPOS_STRAIGHT_PAIR_INFO_FULL_PAIRS M 202 10-22-2016 M 88, 44, 01, 89, 02, 46, 03, 04, 48, 05, 49, 06, 07, 08, 09, 90, 91, 92, 93, 94, 95, 96, 52, 97, 53, 10, 98, 54, 11, 99, 55, 12, 13, 14, 58, 15, 59, 16, 17, 18, 19, 61, 62, 63, 20, 66, 23, 24, 68, 69, 26, 27, 28, 29, 70, 71, 72, 73, 30, 74, 31, 75, 32, 76, 33, 77, 34, 78, 79, 36, 37, 38, 39, 81, 83, 40, 84, 41, 85, 42, 86, 87 7


    COMBOS:

    AMBER_AMAZING_POWER_OF_THREE_ONLY_TRIANGULATED_FULL_COMBOS C 202 10-22-2016 M 066, 068, 399, 697, 733, 439
    AMBER_AMAZING_POWER_OF_THREE_ONLY_TRIANGULATED_FULL_COMBOS C 968 10-22-2016 E 874, 672, 107, 201, 541, 043

    AMBER_AMAZING_POWER_OF_THREE_SIX_NINE_VARIATION_SYSTEM_FULL_COMBOS C 202 10-22-2016 M 060, 018, 060, 012, 120, 018, 120, 006, 180, 012, 180, 006
    AMBER_AMAZING_POWER_OF_THREE_SIX_NINE_VARIATION_SYSTEM_FULL_COMBOS C 968 10-22-2016 E 273, 672, 275, 448, 541, 872, 545, 424, 811, 848, 813, 624

    EKEM6078_ITSINTHEBOX_TTT_FULL_COMBOS C 10-22-2016 E 567, 988, 109, 591, 680, 789, 589, 781, 690, 680, 581, 789, 189, 578, 968, 908, 569, 768, 109, 908, 568, 689, 895, 956, 678, 788, 886, 867, 890, 081, 019, 198, 889, 890, 098, 088, 568, 987, 989, 108, 590, 681, 689, 780, 769, 885, 881, 909, 196, 085, 087, 986
    EKEM6078_ITSINTHEBOX_TTT_FULL_COMBOS C 10-22-2016 M 901, 222, 543, 925, 024, 123, 923, 125, 024, 024, 925, 123, 523, 912, 202, 242, 902, 102, 542, 342, 902, 022, 229, 290, 012, 122, 220, 201, 224, 425, 452, 522, 223, 234, 432, 422, 902, 221, 223, 542, 924, 025, 023, 124, 102, 229, 225, 342, 520, 429, 421, 320

    LAKERBEN_MIRROR_ADJACENT_INFO_FULL_COMBOS C 10-22-2016 E 480, 517, 793, 457, 819, 073, 413, 017, 859, 879, 417, 013, 713, 401, 587, 597, 485, 087, 795, 397, 481, 815, 154, 548, 807, 071, 178, 180, 159, 917, 975, 751, 173, 739, 931, 917, 487, 510, 513, 797, 459, 817, 813, 079, 085, 714, 717, 395, 758, 914, 910, 378
    LAKERBEN_MIRROR_ADJACENT_INFO_FULL_COMBOS C 10-22-2016 M 713, 951, 137, 791, 153, 317, 757, 351, 193, 113, 751, 357, 157, 735, 911, 931, 719, 311, 139, 731, 715, 159, 597, 971, 131, 315, 511, 513, 593, 351, 319, 195, 517, 173, 375, 351, 711, 953, 957, 131, 793, 151, 157, 313, 319, 157, 151, 739, 191, 357, 353, 711

    LAKERBEN_WINP3_SYSTEM_FULL_COMBOS C 10-22-2016 E 324, 546, 768, 980, 102
    LAKERBEN_WINP3_SYSTEM_FULL_COMBOS C 10-22-2016 M 990, 991, 992, 993, 994, 995, 996, 997, 998, 999

    LOTTOLAUGHS_90_DEGREES_SYSTEM_FULL_COMBOS C 202 10-22-2016 M 524, 534, 544, 079, 089, 099, 525, 535, 545, 070, 080, 090, 523, 533, 543, 078, 088, 098
    LOTTOLAUGHS_90_DEGREES_SYSTEM_FULL_COMBOS C 968 10-22-2016 E 056, 066, 076, 001, 011, 021, 057, 067, 077, 002, 012, 022, 055, 065, 075, 000, 010, 020

    LUCKY_MAYBELL_TTT_FULL_COMBOS C 10-22-2016 E 458, 934, 382, 493, 538, 842, 432, 833, 598, 548, 433, 832, 332, 483, 954, 984, 459, 854, 389, 284, 453, 539, 394, 945, 584, 843, 345, 358, 398, 833, 839, 393, 342, 428, 823, 834, 454, 938, 932, 384, 498, 533, 532, 848, 859, 434, 433, 289, 395, 834, 838, 245
    LUCKY_MAYBELL_TTT_FULL_COMBOS C 10-22-2016 M 586, 566, 042, 550, 864, 662, 562, 660, 854, 864, 560, 662, 062, 566, 586, 546, 585, 686, 045, 246, 586, 865, 655, 558, 866, 666, 668, 686, 654, 460, 405, 056, 662, 624, 426, 466, 586, 566, 562, 046, 554, 860, 862, 664, 685, 665, 660, 245, 058, 465, 466, 268
    LUCKY_MAYBELL_TTT_FULL_COMBOS E 10-22-2016 E 561, 667, 128, 561, 662, 178, 568, 161, 662, 672, 561, 168, 168, 516, 667, 627, 566, 167, 126, 827, 566, 666, 665, 656, 617, 176, 676, 661, 662, 261, 216, 166, 678, 782, 286, 267, 567, 661, 668, 127, 562, 661, 668, 172, 166, 765, 761, 826, 166, 265, 261, 876
    LUCKY_MAYBELL_TTT_FULL_COMBOS M 10-22-2016 M 883, 223, 006, 820, 820, 336, 826, 320, 820, 830, 820, 326, 026, 832, 283, 203, 882, 383, 002, 603, 882, 822, 228, 288, 833, 332, 238, 283, 220, 020, 002, 022, 236, 360, 062, 023, 883, 223, 226, 003, 820, 820, 826, 330, 382, 328, 320, 602, 028, 028, 023, 638

    MSWIZZ_ALL_INFO_FULL_COMBOS C 10-22-2016 E 968, 054, 123, 901, 652, 843, 953, 851, 602, 642, 951, 853, 153, 985, 064, 024, 960, 864, 120, 324, 965, 650, 509, 096, 684, 845, 546, 568, 502, 251, 210, 105, 543, 432, 235, 254, 964, 058, 053, 124, 902, 651, 653, 842, 860, 459, 451, 320, 106, 259, 258, 346, 968, 349, 210, 932, 641, 890, 940, 842, 631, 691, 942, 840, 240, 984, 369, 319, 963, 869, 213, 019, 964, 643, 439, 396, 689, 894, 496, 468, 431, 142, 123, 234, 490, 901, 104, 149, 969, 348, 340, 219, 931, 642, 640, 891, 863, 949, 942, 013, 236, 149, 148, 096
    MSWIZZ_ALL_INFO_FULL_COMBOS C 10-22-2016 M 202, 387, 456, 234, 085, 276, 286, 284, 035, 075, 284, 286, 486, 228, 307, 357, 203, 207, 453, 657, 208, 083, 832, 320, 027, 278, 870, 802, 835, 584, 543, 438, 876, 765, 568, 587, 207, 382, 386, 457, 235, 084, 086, 275, 203, 782, 784, 653, 430, 582, 582, 670, 202, 783, 654, 276, 085, 234, 284, 286, 075, 035, 286, 284, 684, 228, 703, 753, 207, 203, 657, 453, 208, 087, 872, 720, 023, 238, 830, 802, 875, 586, 567, 678, 834, 345, 548, 583, 203, 782, 784, 653, 275, 086, 084, 235, 207, 382, 386, 457, 670, 582, 582, 430

     

    PIRATE_COMBOS_SYSTEM_FULL_COMBOS C 202 10-22-2016 M 10 358, 351, 357, 359, 350, 348, 341, 347, 349, 340, 368, 361, 367, 369, 360, 328, 321, 327, 329, 320, 548, 541, 547, 549, 540, 568, 561, 567, 569, 560, 528, 521, 527, 529, 520, 468, 461, 467, 469, 460, 428, 421, 427, 429, 420, 628, 621, 627, 629, 620, 338, 331, 337, 339, 330, 558, 551, 557, 559, 550, 448, 441, 447, 449, 440, 668, 661, 667, 669, 660, 228, 221, 227, 229, 220, 333, 555, 444, 666, 222, 358, 351, 357, 359, 350, 348, 341, 347, 349, 340, 368, 361, 367, 369, 360, 328, 321, 327, 329, 320, 341, 349, 360, 549, 461, 551, 447, 669, 333, 555
    PIRATE_COMBOS_SYSTEM_FULL_COMBOS C 202 10-22-2016 M 14 435, 432, 437, 439, 430, 465, 462, 467, 469, 460, 485, 482, 487, 489, 480, 415, 412, 417, 419, 410, 365, 362, 367, 369, 360, 385, 382, 387, 389, 380, 315, 312, 317, 319, 310, 685, 682, 687, 689, 680, 615, 612, 617, 619, 610, 815, 812, 817, 819, 810, 445, 442, 447, 449, 440, 335, 332, 337, 339, 330, 665, 662, 667, 669, 660, 885, 882, 887, 889, 880, 115, 112, 117, 119, 110, 444, 333, 666, 888, 111, 435, 432, 437, 439, 430, 465, 462, 467, 469, 460, 485, 482, 487, 489, 480, 415, 412, 417, 419, 410, 462, 469, 480, 369, 682, 332, 667, 889, 444, 333
    PIRATE_COMBOS_SYSTEM_FULL_COMBOS C 202 10-22-2016 M 21 645, 642, 647, 640, 649, 685, 682, 687, 680, 689, 615, 612, 617, 610, 619, 635, 632, 637, 630, 639, 485, 482, 487, 480, 489, 415, 412, 417, 410, 419, 435, 432, 437, 430, 439, 815, 812, 817, 810, 819, 835, 832, 837, 830, 839, 135, 132, 137, 130, 139, 665, 662, 667, 660, 669, 445, 442, 447, 440, 449, 885, 882, 887, 880, 889, 115, 112, 117, 110, 119, 335, 332, 337, 330, 339, 666, 444, 888, 111, 333, 645, 642, 647, 640, 649, 685, 682, 687, 680, 689, 615, 612, 617, 610, 619, 635, 632, 637, 630, 639, 682, 680, 619, 480, 812, 442, 887, 110, 666, 444
    PIRATE_COMBOS_SYSTEM_FULL_COMBOS C 202 10-22-2016 M 30 312, 315, 317, 319, 310, 362, 365, 367, 369, 360, 382, 385, 387, 389, 380, 342, 345, 347, 349, 340, 162, 165, 167, 169, 160, 182, 185, 187, 189, 180, 142, 145, 147, 149, 140, 682, 685, 687, 689, 680, 642, 645, 647, 649, 640, 842, 845, 847, 849, 840, 332, 335, 337, 339, 330, 112, 115, 117, 119, 110, 662, 665, 667, 669, 660, 882, 885, 887, 889, 880, 442, 445, 447, 449, 440, 333, 111, 666, 888, 444, 312, 315, 317, 319, 310, 362, 365, 367, 369, 360, 382, 385, 387, 389, 380, 342, 345, 347, 349, 340, 365, 369, 380, 169, 685, 115, 667, 889, 333, 111
    PIRATE_COMBOS_SYSTEM_FULL_COMBOS C 202 10-22-2016 M 7 538, 534, 530, 537, 539, 528, 524, 520, 527, 529, 568, 564, 560, 567, 569, 518, 514, 510, 517, 519, 328, 324, 320, 327, 329, 368, 364, 360, 367, 369, 318, 314, 310, 317, 319, 268, 264, 260, 267, 269, 218, 214, 210, 217, 219, 618, 614, 610, 617, 619, 558, 554, 550, 557, 559, 338, 334, 330, 337, 339, 228, 224, 220, 227, 229, 668, 664, 660, 667, 669, 118, 114, 110, 117, 119, 555, 333, 222, 666, 111, 538, 534, 530, 537, 539, 528, 524, 520, 527, 529, 568, 564, 560, 567, 569, 518, 514, 510, 517, 519, 524, 527, 569, 327, 264, 334, 220, 667, 555, 333


    PIRATE_COMBOS_SYSTEM_FULL_COMBOS C 968 10-22-2016 E 10 321, 328, 320, 327, 329, 351, 358, 350, 357, 359, 341, 348, 340, 347, 349, 361, 368, 360, 367, 369, 251, 258, 250, 257, 259, 241, 248, 240, 247, 249, 261, 268, 260, 267, 269, 541, 548, 540, 547, 549, 561, 568, 560, 567, 569, 461, 468, 460, 467, 469, 331, 338, 330, 337, 339, 221, 228, 220, 227, 229, 551, 558, 550, 557, 559, 441, 448, 440, 447, 449, 661, 668, 660, 667, 669, 333, 222, 555, 444, 666, 321, 328, 320, 327, 329, 351, 358, 350, 357, 359, 341, 348, 340, 347, 349, 361, 368, 360, 367, 369, 358, 357, 349, 257, 548, 228, 550, 447, 333, 222
    PIRATE_COMBOS_SYSTEM_FULL_COMBOS C 968 10-22-2016 E 14 426, 421, 427, 420, 429, 436, 431, 437, 430, 439, 456, 451, 457, 450, 459, 486, 481, 487, 480, 489, 236, 231, 237, 230, 239, 256, 251, 257, 250, 259, 286, 281, 287, 280, 289, 356, 351, 357, 350, 359, 386, 381, 387, 380, 389, 586, 581, 587, 580, 589, 446, 441, 447, 440, 449, 226, 221, 227, 220, 229, 336, 331, 337, 330, 339, 556, 551, 557, 550, 559, 886, 881, 887, 880, 889, 444, 222, 333, 555, 888, 426, 421, 427, 420, 429, 436, 431, 437, 430, 439, 456, 451, 457, 450, 459, 486, 481, 487, 480, 489, 431, 430, 459, 230, 351, 221, 337, 550, 444, 222
    PIRATE_COMBOS_SYSTEM_FULL_COMBOS C 968 10-22-2016 E 21 682, 685, 680, 687, 689, 642, 645, 640, 647, 649, 612, 615, 610, 617, 619, 632, 635, 630, 637, 639, 842, 845, 840, 847, 849, 812, 815, 810, 817, 819, 832, 835, 830, 837, 839, 412, 415, 410, 417, 419, 432, 435, 430, 437, 439, 132, 135, 130, 137, 139, 662, 665, 660, 667, 669, 882, 885, 880, 887, 889, 442, 445, 440, 447, 449, 112, 115, 110, 117, 119, 332, 335, 330, 337, 339, 666, 888, 444, 111, 333, 682, 685, 680, 687, 689, 642, 645, 640, 647, 649, 612, 615, 610, 617, 619, 632, 635, 630, 637, 639, 645, 647, 619, 847, 415, 885, 440, 117, 666, 888
    PIRATE_COMBOS_SYSTEM_FULL_COMBOS C 968 10-22-2016 E 30 364, 365, 360, 367, 369, 324, 325, 320, 327, 329, 314, 315, 310, 317, 319, 384, 385, 380, 387, 389, 624, 625, 620, 627, 629, 614, 615, 610, 617, 619, 684, 685, 680, 687, 689, 214, 215, 210, 217, 219, 284, 285, 280, 287, 289, 184, 185, 180, 187, 189, 334, 335, 330, 337, 339, 664, 665, 660, 667, 669, 224, 225, 220, 227, 229, 114, 115, 110, 117, 119, 884, 885, 880, 887, 889, 333, 666, 222, 111, 888, 364, 365, 360, 367, 369, 324, 325, 320, 327, 329, 314, 315, 310, 317, 319, 384, 385, 380, 387, 389, 325, 327, 319, 627, 215, 665, 220, 117, 333, 666
    PIRATE_COMBOS_SYSTEM_FULL_COMBOS C 968 10-22-2016 E 7 256, 258, 250, 257, 259, 236, 238, 230, 237, 239, 216, 218, 210, 217, 219, 246, 248, 240, 247, 249, 536, 538, 530, 537, 539, 516, 518, 510, 517, 519, 546, 548, 540, 547, 549, 316, 318, 310, 317, 319, 346, 348, 340, 347, 349, 146, 148, 140, 147, 149, 226, 228, 220, 227, 229, 556, 558, 550, 557, 559, 336, 338, 330, 337, 339, 116, 118, 110, 117, 119, 446, 448, 440, 447, 449, 222, 555, 333, 111, 444, 256, 258, 250, 257, 259, 236, 238, 230, 237, 239, 216, 218, 210, 217, 219, 246, 248, 240, 247, 249, 238, 237, 219, 537, 318, 558, 330, 117, 222, 555


    PIRATE_COMBOS_SYSTEM_FULL_COMBOS E 968 10-22-2016 E 10 312, 314, 319, 317, 310, 352, 354, 359, 357, 350, 362, 364, 369, 367, 360, 382, 384, 389, 387, 380, 152, 154, 159, 157, 150, 162, 164, 169, 167, 160, 182, 184, 189, 187, 180, 562, 564, 569, 567, 560, 582, 584, 589, 587, 580, 682, 684, 689, 687, 680, 332, 334, 339, 337, 330, 112, 114, 119, 117, 110, 552, 554, 559, 557, 550, 662, 664, 669, 667, 660, 882, 884, 889, 887, 880, 333, 111, 555, 666, 888, 312, 314, 319, 317, 310, 352, 354, 359, 357, 350, 362, 364, 369, 367, 360, 382, 384, 389, 387, 380, 354, 357, 360, 157, 564, 114, 559, 667, 333, 111
    PIRATE_COMBOS_SYSTEM_FULL_COMBOS E 968 10-22-2016 E 14 386, 382, 389, 387, 380, 316, 312, 319, 317, 310, 346, 342, 349, 347, 340, 356, 352, 359, 357, 350, 816, 812, 819, 817, 810, 846, 842, 849, 847, 840, 856, 852, 859, 857, 850, 146, 142, 149, 147, 140, 156, 152, 159, 157, 150, 456, 452, 459, 457, 450, 336, 332, 339, 337, 330, 886, 882, 889, 887, 880, 116, 112, 119, 117, 110, 446, 442, 449, 447, 440, 556, 552, 559, 557, 550, 333, 888, 111, 444, 555, 386, 382, 389, 387, 380, 316, 312, 319, 317, 310, 346, 342, 349, 347, 340, 356, 352, 359, 357, 350, 312, 317, 340, 817, 142, 882, 119, 447, 333, 888
    PIRATE_COMBOS_SYSTEM_FULL_COMBOS E 968 10-22-2016 E 21 831, 839, 832, 837, 830, 861, 869, 862, 867, 860, 851, 859, 852, 857, 850, 841, 849, 842, 847, 840, 361, 369, 362, 367, 360, 351, 359, 352, 357, 350, 341, 349, 342, 347, 340, 651, 659, 652, 657, 650, 641, 649, 642, 647, 640, 541, 549, 542, 547, 540, 881, 889, 882, 887, 880, 331, 339, 332, 337, 330, 661, 669, 662, 667, 660, 551, 559, 552, 557, 550, 441, 449, 442, 447, 440, 888, 333, 666, 555, 444, 831, 839, 832, 837, 830, 861, 869, 862, 867, 860, 851, 859, 852, 857, 850, 841, 849, 842, 847, 840, 869, 867, 850, 367, 659, 339, 662, 557, 888, 333
    PIRATE_COMBOS_SYSTEM_FULL_COMBOS E 968 10-22-2016 E 30 384, 389, 387, 380, 381, 324, 329, 327, 320, 321, 364, 369, 367, 360, 361, 354, 359, 357, 350, 351, 824, 829, 827, 820, 821, 864, 869, 867, 860, 861, 854, 859, 857, 850, 851, 264, 269, 267, 260, 261, 254, 259, 257, 250, 251, 654, 659, 657, 650, 651, 334, 339, 337, 330, 331, 884, 889, 887, 880, 881, 224, 229, 227, 220, 221, 664, 669, 667, 660, 661, 554, 559, 557, 550, 551, 333, 888, 222, 666, 555, 384, 389, 387, 380, 381, 324, 329, 327, 320, 321, 364, 369, 367, 360, 361, 354, 359, 357, 350, 351, 329, 320, 361, 820, 269, 889, 227, 660, 333, 888
    PIRATE_COMBOS_SYSTEM_FULL_COMBOS E 968 10-22-2016 E 7 312, 316, 319, 317, 310, 352, 356, 359, 357, 350, 382, 386, 389, 387, 380, 342, 346, 349, 347, 340, 152, 156, 159, 157, 150, 182, 186, 189, 187, 180, 142, 146, 149, 147, 140, 582, 586, 589, 587, 580, 542, 546, 549, 547, 540, 842, 846, 849, 847, 840, 332, 336, 339, 337, 330, 112, 116, 119, 117, 110, 552, 556, 559, 557, 550, 882, 886, 889, 887, 880, 442, 446, 449, 447, 440, 333, 111, 555, 888, 444, 312, 316, 319, 317, 310, 352, 356, 359, 357, 350, 382, 386, 389, 387, 380, 342, 346, 349, 347, 340, 356, 357, 380, 157, 586, 116, 559, 887, 333, 111


    PIRATE_COMBOS_SYSTEM_FULL_COMBOS M 202 10-22-2016 M 10 428, 420, 421, 423, 429, 458, 450, 451, 453, 459, 468, 460, 461, 463, 469, 478, 470, 471, 473, 479, 258, 250, 251, 253, 259, 268, 260, 261, 263, 269, 278, 270, 271, 273, 279, 568, 560, 561, 563, 569, 578, 570, 571, 573, 579, 678, 670, 671, 673, 679, 448, 440, 441, 443, 449, 228, 220, 221, 223, 229, 558, 550, 551, 553, 559, 668, 660, 661, 663, 669, 778, 770, 771, 773, 779, 444, 222, 555, 666, 777, 428, 420, 421, 423, 429, 458, 450, 451, 453, 459, 468, 460, 461, 463, 469, 478, 470, 471, 473, 479, 450, 453, 469, 253, 560, 220, 551, 663, 444, 222
    PIRATE_COMBOS_SYSTEM_FULL_COMBOS M 202 10-22-2016 M 14 461, 468, 460, 463, 469, 421, 428, 420, 423, 429, 451, 458, 450, 453, 459, 471, 478, 470, 473, 479, 621, 628, 620, 623, 629, 651, 658, 650, 653, 659, 671, 678, 670, 673, 679, 251, 258, 250, 253, 259, 271, 278, 270, 273, 279, 571, 578, 570, 573, 579, 441, 448, 440, 443, 449, 661, 668, 660, 663, 669, 221, 228, 220, 223, 229, 551, 558, 550, 553, 559, 771, 778, 770, 773, 779, 444, 666, 222, 555, 777, 461, 468, 460, 463, 469, 421, 428, 420, 423, 429, 451, 458, 450, 453, 459, 471, 478, 470, 473, 479, 428, 423, 459, 623, 258, 668, 220, 553, 444, 666
    PIRATE_COMBOS_SYSTEM_FULL_COMBOS M 202 10-22-2016 M 21 467, 468, 460, 463, 469, 417, 418, 410, 413, 419, 427, 428, 420, 423, 429, 457, 458, 450, 453, 459, 617, 618, 610, 613, 619, 627, 628, 620, 623, 629, 657, 658, 650, 653, 659, 127, 128, 120, 123, 129, 157, 158, 150, 153, 159, 257, 258, 250, 253, 259, 447, 448, 440, 443, 449, 667, 668, 660, 663, 669, 117, 118, 110, 113, 119, 227, 228, 220, 223, 229, 557, 558, 550, 553, 559, 444, 666, 111, 222, 555, 467, 468, 460, 463, 469, 417, 418, 410, 413, 419, 427, 428, 420, 423, 429, 457, 458, 450, 453, 459, 418, 413, 429, 613, 128, 668, 110, 223, 444, 666
    PIRATE_COMBOS_SYSTEM_FULL_COMBOS M 202 10-22-2016 M 30 148, 147, 143, 149, 140, 168, 167, 163, 169, 160, 128, 127, 123, 129, 120, 158, 157, 153, 159, 150, 468, 467, 463, 469, 460, 428, 427, 423, 429, 420, 458, 457, 453, 459, 450, 628, 627, 623, 629, 620, 658, 657, 653, 659, 650, 258, 257, 253, 259, 250, 118, 117, 113, 119, 110, 448, 447, 443, 449, 440, 668, 667, 663, 669, 660, 228, 227, 223, 229, 220, 558, 557, 553, 559, 550, 111, 444, 666, 222, 555, 148, 147, 143, 149, 140, 168, 167, 163, 169, 160, 128, 127, 123, 129, 120, 158, 157, 153, 159, 150, 167, 169, 120, 469, 627, 447, 663, 229, 111, 444
    PIRATE_COMBOS_SYSTEM_FULL_COMBOS M 202 10-22-2016 M 7 527, 528, 521, 523, 529, 567, 568, 561, 563, 569, 507, 508, 501, 503, 509, 547, 548, 541, 543, 549, 267, 268, 261, 263, 269, 207, 208, 201, 203, 209, 247, 248, 241, 243, 249, 607, 608, 601, 603, 609, 647, 648, 641, 643, 649, 047, 048, 041, 043, 049, 557, 558, 551, 553, 559, 227, 228, 221, 223, 229, 667, 668, 661, 663, 669, 007, 008, 001, 003, 009, 447, 448, 441, 443, 449, 555, 222, 666, 000, 444, 527, 528, 521, 523, 529, 567, 568, 561, 563, 569, 507, 508, 501, 503, 509, 547, 548, 541, 543, 549, 568, 563, 509, 263, 608, 228, 661, 003, 555, 222

     

    POWERTRAILS_COMBOS_SYSTEM_FULL_COMBOS C 202 10-22-2016 M 10 356, 348, 561, 529, 427, 480, 354, 562, 542, 428, 617, 672, 279, 298, 891, 091, 072, 916, 985, 784, 723, 097, 918, 978, 782, 164, 148, 845, 852, 256, 354, 546, 462, 628, 390, 317, 350, 351, 340, 341, 327, 311, 300, 330, 331, 097, 971, 718, 182, 053, 064, 093, 096, 073, 076, 084, 066, 033, 003, 006
    POWERTRAILS_COMBOS_SYSTEM_FULL_COMBOS C 202 10-22-2016 M 14 438, 465, 382, 319, 617, 650, 436, 381, 361, 615, 827, 871, 179, 195, 592, 092, 071, 928, 953, 756, 714, 097, 925, 975, 751, 286, 265, 563, 531, 138, 436, 368, 681, 815, 490, 427, 430, 432, 460, 462, 417, 422, 400, 440, 442, 097, 972, 725, 251, 034, 086, 094, 098, 074, 078, 056, 088, 044, 004, 008
    POWERTRAILS_COMBOS_SYSTEM_FULL_COMBOS C 202 10-22-2016 M 21 641, 685, 412, 430, 837, 859, 648, 413, 483, 835, 127, 173, 370, 305, 502, 902, 973, 021, 054, 758, 736, 907, 025, 075, 753, 218, 285, 584, 543, 341, 648, 481, 813, 135, 609, 627, 649, 642, 689, 682, 637, 622, 699, 669, 662, 907, 072, 725, 253, 946, 918, 906, 901, 976, 971, 958, 911, 966, 996, 991
    POWERTRAILS_COMBOS_SYSTEM_FULL_COMBOS C 202 10-22-2016 M 30 318, 362, 185, 149, 647, 620, 316, 184, 164, 642, 857, 874, 479, 492, 295, 095, 074, 958, 921, 726, 743, 097, 952, 972, 724, 586, 562, 261, 214, 418, 316, 168, 684, 842, 390, 357, 310, 315, 360, 365, 347, 355, 300, 330, 335, 097, 975, 752, 524, 013, 086, 093, 098, 073, 078, 026, 088, 033, 003, 008
    POWERTRAILS_COMBOS_SYSTEM_FULL_COMBOS C 202 10-22-2016 M 7 536, 528, 364, 317, 210, 289, 532, 361, 321, 218, 640, 601, 107, 178, 874, 974, 901, 746, 783, 082, 015, 970, 748, 708, 081, 462, 428, 823, 831, 136, 532, 326, 261, 618, 579, 540, 539, 534, 529, 524, 510, 544, 599, 559, 554, 970, 704, 048, 481, 935, 962, 975, 976, 905, 906, 982, 966, 955, 995, 996


    POWERTRAILS_COMBOS_SYSTEM_FULL_COMBOS C 968 10-22-2016 E 10 324, 351, 248, 267, 560, 519, 325, 246, 256, 561, 480, 406, 607, 671, 178, 978, 906, 784, 712, 015, 063, 970, 781, 701, 016, 845, 851, 152, 126, 624, 325, 254, 546, 461, 379, 380, 329, 328, 359, 358, 360, 388, 399, 339, 338, 970, 708, 081, 816, 923, 945, 973, 974, 903, 904, 915, 944, 933, 993, 994
    POWERTRAILS_COMBOS_SYSTEM_FULL_COMBOS C 968 10-22-2016 E 14 425, 436, 251, 280, 387, 369, 423, 258, 238, 386, 517, 578, 870, 806, 601, 901, 978, 015, 062, 763, 784, 907, 016, 076, 768, 153, 136, 632, 628, 825, 423, 235, 358, 586, 409, 417, 429, 421, 439, 431, 487, 411, 499, 449, 441, 907, 071, 716, 168, 924, 953, 904, 905, 974, 975, 963, 955, 944, 994, 995
    POWERTRAILS_COMBOS_SYSTEM_FULL_COMBOS C 968 10-22-2016 E 21 681, 642, 815, 837, 430, 429, 684, 813, 843, 432, 150, 103, 307, 372, 275, 975, 903, 751, 728, 024, 036, 970, 752, 702, 023, 514, 542, 248, 283, 381, 684, 841, 413, 132, 679, 650, 689, 685, 649, 645, 630, 655, 699, 669, 665, 970, 705, 052, 523, 986, 914, 976, 971, 906, 901, 924, 911, 966, 996, 991
    POWERTRAILS_COMBOS_SYSTEM_FULL_COMBOS C 968 10-22-2016 E 30 361, 324, 615, 687, 280, 249, 362, 618, 628, 284, 150, 108, 807, 874, 475, 975, 908, 751, 746, 042, 083, 970, 754, 704, 048, 512, 524, 426, 468, 861, 362, 621, 218, 184, 379, 350, 369, 365, 329, 325, 380, 355, 399, 339, 335, 970, 705, 054, 548, 963, 912, 973, 971, 903, 901, 942, 911, 933, 993, 991
    POWERTRAILS_COMBOS_SYSTEM_FULL_COMBOS C 968 10-22-2016 E 7 251, 236, 518, 547, 340, 369, 253, 514, 534, 346, 180, 104, 407, 476, 678, 978, 904, 781, 765, 063, 042, 970, 786, 706, 064, 813, 836, 635, 654, 451, 253, 531, 314, 146, 279, 280, 259, 258, 239, 238, 240, 288, 299, 229, 228, 970, 708, 086, 864, 952, 913, 972, 971, 902, 901, 963, 911, 922, 992, 991


    POWERTRAILS_COMBOS_SYSTEM_FULL_COMBOS E 968 10-22-2016 E 10 316, 352, 164, 187, 589, 520, 315, 168, 158, 582, 649, 698, 897, 872, 274, 074, 098, 746, 721, 925, 983, 079, 742, 792, 928, 465, 452, 251, 218, 816, 315, 156, 568, 682, 370, 349, 310, 314, 350, 354, 389, 344, 300, 330, 334, 079, 794, 942, 428, 013, 065, 073, 076, 093, 096, 025, 066, 033, 003, 006
    POWERTRAILS_COMBOS_SYSTEM_FULL_COMBOS E 968 10-22-2016 E 14 384, 316, 842, 857, 159, 160, 381, 845, 815, 156, 429, 495, 597, 576, 672, 072, 095, 724, 768, 961, 953, 079, 726, 796, 965, 241, 216, 618, 685, 584, 381, 814, 145, 456, 370, 329, 380, 382, 310, 312, 359, 322, 300, 330, 332, 079, 792, 926, 265, 083, 041, 073, 074, 093, 094, 061, 044, 033, 003, 004
    POWERTRAILS_COMBOS_SYSTEM_FULL_COMBOS E 968 10-22-2016 E 21 835, 861, 359, 347, 642, 610, 836, 354, 364, 641, 592, 524, 427, 471, 179, 079, 024, 795, 713, 216, 248, 072, 791, 721, 214, 956, 961, 163, 134, 435, 836, 365, 654, 541, 870, 892, 830, 839, 860, 869, 842, 899, 800, 880, 889, 072, 729, 291, 914, 038, 056, 078, 075, 028, 025, 016, 055, 088, 008, 005
    POWERTRAILS_COMBOS_SYSTEM_FULL_COMBOS E 968 10-22-2016 E 30 386, 324, 869, 850, 257, 241, 382, 865, 825, 254, 697, 675, 570, 504, 409, 109, 175, 096, 048, 742, 753, 107, 094, 074, 745, 962, 924, 428, 485, 586, 382, 826, 265, 654, 301, 397, 381, 389, 321, 329, 357, 399, 311, 331, 339, 107, 079, 794, 945, 183, 162, 103, 106, 173, 176, 142, 166, 133, 113, 116
    POWERTRAILS_COMBOS_SYSTEM_FULL_COMBOS E 968 10-22-2016 E 7 318, 352, 186, 147, 549, 520, 315, 184, 154, 542, 869, 894, 497, 472, 276, 076, 094, 768, 721, 925, 943, 079, 762, 792, 924, 685, 652, 251, 214, 418, 315, 158, 584, 842, 370, 369, 310, 316, 350, 356, 349, 366, 300, 330, 336, 079, 796, 962, 624, 013, 085, 073, 078, 093, 098, 025, 088, 033, 003, 008


    POWERTRAILS_COMBOS_SYSTEM_FULL_COMBOS M 202 10-22-2016 M 10 426, 458, 260, 273, 571, 589, 425, 267, 257, 578, 601, 617, 713, 738, 830, 930, 917, 306, 382, 185, 174, 931, 308, 318, 187, 065, 058, 852, 827, 726, 425, 256, 567, 678, 439, 401, 429, 420, 459, 450, 471, 400, 499, 449, 440, 931, 310, 108, 087, 924, 965, 934, 936, 914, 916, 985, 966, 944, 994, 996
    POWERTRAILS_COMBOS_SYSTEM_FULL_COMBOS M 202 10-22-2016 M 14 465, 421, 658, 673, 270, 219, 462, 657, 627, 271, 580, 507, 703, 731, 138, 938, 907, 385, 316, 012, 074, 930, 381, 301, 017, 852, 821, 126, 167, 765, 462, 625, 257, 571, 439, 480, 469, 468, 429, 428, 470, 488, 499, 449, 448, 930, 308, 081, 817, 964, 952, 934, 935, 904, 905, 912, 955, 944, 994, 995
    POWERTRAILS_COMBOS_SYSTEM_FULL_COMBOS M 202 10-22-2016 M 21 462, 417, 628, 653, 150, 179, 461, 625, 615, 157, 280, 205, 503, 537, 738, 938, 905, 382, 376, 071, 054, 930, 387, 307, 075, 821, 817, 716, 765, 562, 461, 612, 125, 257, 439, 480, 469, 468, 419, 418, 450, 488, 499, 449, 448, 930, 308, 087, 875, 964, 921, 934, 932, 904, 902, 971, 922, 944, 994, 992
    POWERTRAILS_COMBOS_SYSTEM_FULL_COMBOS M 202 10-22-2016 M 30 142, 168, 427, 459, 653, 680, 146, 425, 465, 658, 273, 235, 539, 598, 897, 097, 035, 972, 984, 386, 351, 093, 978, 938, 385, 726, 768, 864, 845, 542, 146, 462, 625, 258, 190, 173, 140, 147, 160, 167, 153, 177, 100, 110, 117, 093, 937, 378, 785, 041, 026, 091, 092, 031, 032, 086, 022, 011, 001, 002
    POWERTRAILS_COMBOS_SYSTEM_FULL_COMBOS M 202 10-22-2016 M 7 520, 567, 208, 243, 641, 679, 526, 204, 264, 647, 081, 014, 413, 437, 738, 938, 914, 380, 372, 176, 145, 931, 387, 317, 174, 806, 867, 762, 724, 420, 526, 260, 604, 047, 539, 581, 529, 528, 569, 568, 541, 588, 599, 559, 558, 931, 318, 187, 874, 925, 906, 935, 930, 915, 910, 976, 900, 955, 995, 990

    RINGS_OF_PI_KOLA_COMBOS_SYSTEM_FULL_COMBOS C 202 10-22-2016 M 10 081, 192, 303, 414, 525, 636, 747, 858, 969, 081, 086, 121, 581, 197, 242, 692, 308, 353, 803, 419, 464, 914, 530, 575, 026, 631, 586, 126, 742, 697, 247, 853, 808, 358, 964, 919, 469, 076, 031, 580, 081, 029, 140, 251, 362, 473, 584, 695, 806, 917, 076, 041, 418, 034, 079, 529, 145, 190, 640, 256, 301, 751, 367, 412, 862, 468, 423, 036, 579, 534, 084, 690, 645, 195, 801, 756, 306, 912, 867, 417, 081, 099, 116, 134, 152, 169, 187, 205, 222, 240, 082, 087, 161, 099, 107, 178, 117, 124, 196, 135, 142, 214, 152, 160, 231, 168, 161, 088, 186, 179, 107, 204, 197, 125, 221, 214, 143, 239, 232, 160, 081, 063, 046, 028, 010, 006, 024, 042, 059, 077, 080, 075, 001, 063, 055, 015, 045, 038, 033, 027, 020, 051, 010, 002, 068, 006, 001, 074, 023, 016, 055, 041, 034, 037, 058, 051, 019, 076, 069, 002
    RINGS_OF_PI_KOLA_COMBOS_SYSTEM_FULL_COMBOS C 202 10-22-2016 M 3 082, 193, 304, 415, 526, 637, 748, 859, 970, 082, 087, 122, 582, 198, 243, 693, 309, 354, 804, 420, 465, 915, 531, 576, 027, 632, 587, 127, 743, 698, 248, 854, 809, 359, 965, 920, 470, 077, 032, 581, 082, 028, 139, 250, 361, 472, 583, 694, 805, 916, 077, 042, 417, 033, 078, 528, 144, 189, 639, 255, 300, 750, 366, 411, 861, 467, 422, 037, 578, 533, 083, 689, 644, 194, 800, 755, 305, 911, 866, 416, 082, 099, 117, 135, 152, 170, 188, 205, 223, 241, 082, 088, 161, 100, 107, 179, 118, 125, 197, 135, 143, 214, 153, 160, 232, 169, 162, 089, 187, 180, 108, 205, 197, 126, 222, 215, 143, 240, 233, 161, 082, 064, 046, 029, 011, 006, 023, 041, 059, 076, 081, 075, 002, 063, 056, 015, 046, 038, 032, 028, 021, 050, 010, 003, 067, 005, 001, 075, 022, 015, 055, 040, 033, 038, 058, 051, 020, 075, 068, 002
    RINGS_OF_PI_KOLA_COMBOS_SYSTEM_FULL_COMBOS C 202 10-22-2016 M 5 082, 193, 304, 415, 526, 637, 748, 859, 970, 082, 087, 122, 582, 198, 243, 693, 309, 354, 804, 420, 465, 915, 531, 576, 027, 632, 587, 127, 743, 698, 248, 854, 809, 359, 965, 920, 470, 077, 032, 581, 082, 028, 139, 250, 361, 472, 583, 694, 805, 916, 077, 042, 417, 033, 078, 528, 144, 189, 639, 255, 300, 750, 366, 411, 861, 467, 422, 037, 578, 533, 083, 689, 644, 194, 800, 755, 305, 911, 866, 416, 082, 100, 117, 135, 152, 170, 188, 205, 223, 241, 083, 088, 161, 100, 107, 179, 118, 125, 197, 136, 143, 214, 153, 160, 232, 169, 162, 089, 187, 180, 108, 205, 198, 126, 222, 215, 144, 240, 233, 161, 082, 064, 047, 029, 011, 005, 023, 041, 058, 076, 081, 075, 002, 063, 056, 014, 046, 039, 032, 028, 021, 050, 010, 003, 067, 005, 002, 075, 022, 015, 055, 040, 033, 038, 058, 050, 020, 075, 068, 002
    RINGS_OF_PI_KOLA_COMBOS_SYSTEM_FULL_COMBOS C 202 10-22-2016 M 7 079, 190, 301, 412, 523, 634, 745, 856, 967, 079, 084, 119, 579, 195, 240, 690, 306, 351, 801, 417, 462, 912, 528, 573, 024, 629, 584, 124, 740, 695, 245, 851, 806, 356, 962, 917, 467, 074, 029, 578, 079, 031, 142, 253, 364, 475, 586, 697, 808, 919, 074, 039, 420, 036, 081, 531, 147, 192, 642, 258, 303, 753, 369, 414, 864, 470, 425, 034, 581, 536, 086, 692, 647, 197, 803, 758, 308, 914, 869, 419, 079, 097, 114, 132, 150, 167, 185, 203, 220, 238, 080, 085, 159, 097, 105, 176, 115, 122, 194, 133, 140, 211, 150, 158, 229, 166, 159, 086, 184, 177, 105, 202, 195, 123, 219, 212, 141, 237, 230, 158, 079, 061, 044, 026, 008, 008, 026, 044, 061, 079, 078, 073, 000, 061, 053, 017, 043, 036, 035, 025, 018, 053, 008, 000, 070, 008, 000, 072, 025, 018, 053, 043, 036, 035, 061, 053, 017, 078, 071, 000

    RINGS_OF_PI_KOLA_COMBOS_SYSTEM_FULL_COMBOS C 968 10-22-2016 E 10 077, 188, 299, 410, 521, 632, 743, 854, 965, 077, 082, 117, 577, 193, 238, 688, 304, 349, 799, 415, 460, 910, 526, 571, 022, 627, 582, 122, 738, 693, 243, 849, 804, 354, 960, 915, 465, 072, 027, 576, 077, 033, 144, 255, 366, 477, 588, 699, 810, 921, 072, 037, 422, 038, 083, 533, 149, 194, 644, 260, 305, 755, 371, 416, 866, 472, 427, 032, 583, 538, 088, 694, 649, 199, 805, 760, 310, 916, 871, 421, 077, 095, 112, 130, 148, 165, 183, 201, 218, 236, 078, 083, 157, 096, 103, 174, 113, 120, 192, 131, 138, 210, 149, 156, 227, 165, 157, 084, 182, 175, 104, 200, 193, 121, 218, 210, 139, 235, 228, 157, 077, 059, 042, 024, 006, 010, 028, 045, 063, 081, 076, 071, 001, 059, 052, 019, 041, 034, 037, 023, 016, 054, 006, 000, 072, 009, 002, 070, 027, 020, 051, 045, 038, 033, 062, 055, 015, 080, 073, 001
    RINGS_OF_PI_KOLA_COMBOS_SYSTEM_FULL_COMBOS C 968 10-22-2016 E 3 080, 191, 302, 413, 524, 635, 746, 857, 968, 080, 085, 120, 580, 196, 241, 691, 307, 352, 802, 418, 463, 913, 529, 574, 025, 630, 585, 125, 741, 696, 246, 852, 807, 357, 963, 918, 468, 075, 030, 579, 080, 030, 141, 252, 363, 474, 585, 696, 807, 918, 075, 040, 419, 035, 080, 530, 146, 191, 641, 257, 302, 752, 368, 413, 863, 469, 424, 035, 580, 535, 085, 691, 646, 196, 802, 757, 307, 913, 868, 418, 080, 097, 115, 133, 150, 168, 185, 203, 221, 238, 080, 086, 159, 098, 105, 177, 116, 123, 194, 133, 140, 212, 151, 158, 230, 167, 160, 087, 185, 178, 106, 202, 195, 124, 220, 213, 141, 238, 231, 159, 080, 062, 044, 027, 009, 008, 025, 043, 061, 078, 079, 073, 000, 061, 054, 017, 043, 036, 034, 026, 019, 052, 008, 001, 070, 007, 000, 072, 025, 017, 053, 042, 035, 035, 060, 053, 018, 078, 070, 000
    RINGS_OF_PI_KOLA_COMBOS_SYSTEM_FULL_COMBOS C 968 10-22-2016 E 5 075, 186, 297, 408, 519, 630, 741, 852, 963, 075, 080, 115, 575, 191, 236, 686, 302, 347, 797, 413, 458, 908, 524, 569, 020, 625, 580, 120, 736, 691, 241, 847, 802, 352, 958, 913, 463, 070, 025, 574, 075, 035, 146, 257, 368, 479, 590, 701, 812, 923, 070, 035, 424, 040, 085, 535, 151, 196, 646, 262, 307, 757, 373, 418, 868, 474, 429, 030, 585, 540, 090, 696, 651, 201, 807, 762, 312, 918, 873, 423, 075, 092, 110, 127, 145, 163, 180, 198, 216, 233, 075, 081, 154, 093, 100, 172, 111, 118, 189, 128, 135, 207, 146, 153, 225, 162, 155, 082, 180, 173, 101, 197, 190, 119, 215, 208, 136, 233, 225, 154, 075, 057, 039, 022, 004, 013, 030, 048, 066, 083, 074, 068, 004, 056, 049, 022, 038, 031, 039, 021, 014, 057, 003, 003, 075, 012, 005, 067, 030, 022, 048, 047, 040, 030, 065, 058, 013, 083, 075, 004
    RINGS_OF_PI_KOLA_COMBOS_SYSTEM_FULL_COMBOS C 968 10-22-2016 E 7 073, 184, 295, 406, 517, 628, 739, 850, 961, 073, 078, 113, 573, 189, 234, 684, 300, 345, 795, 411, 456, 906, 522, 567, 018, 623, 578, 118, 734, 689, 239, 845, 800, 350, 956, 911, 461, 068, 023, 572, 073, 037, 148, 259, 370, 481, 592, 703, 814, 925, 068, 033, 426, 042, 087, 537, 153, 198, 648, 264, 309, 759, 375, 420, 870, 476, 431, 028, 587, 542, 092, 698, 653, 203, 809, 764, 314, 920, 875, 425, 073, 091, 109, 126, 144, 162, 179, 197, 215, 232, 074, 080, 153, 092, 099, 171, 110, 117, 188, 127, 134, 206, 145, 152, 224, 161, 154, 081, 179, 171, 100, 196, 189, 117, 214, 207, 135, 232, 224, 153, 073, 056, 038, 020, 003, 014, 032, 049, 067, 085, 073, 067, 005, 055, 048, 023, 037, 030, 040, 020, 012, 058, 002, 004, 076, 013, 006, 066, 031, 024, 047, 048, 041, 029, 066, 059, 012, 084, 077, 005

    RINGS_OF_PI_KOLA_COMBOS_SYSTEM_FULL_COMBOS E 968 10-22-2016 E 10 078, 189, 300, 411, 522, 633, 744, 855, 966, 078, 083, 118, 578, 194, 239, 689, 305, 350, 800, 416, 461, 911, 527, 572, 023, 628, 583, 123, 739, 694, 244, 850, 805, 355, 961, 916, 466, 073, 028, 577, 078, 032, 143, 254, 365, 476, 587, 698, 809, 920, 073, 038, 421, 037, 082, 532, 148, 193, 643, 259, 304, 754, 370, 415, 865, 471, 426, 033, 582, 537, 087, 693, 648, 198, 804, 759, 309, 915, 870, 420, 078, 096, 114, 131, 149, 167, 184, 202, 220, 237, 079, 085, 158, 097, 104, 175, 114, 122, 193, 132, 139, 211, 150, 157, 228, 166, 159, 085, 183, 176, 105, 201, 194, 122, 219, 212, 140, 236, 229, 158, 078, 061, 043, 025, 008, 009, 027, 044, 062, 080, 077, 072, 000, 060, 053, 018, 042, 035, 036, 025, 017, 053, 007, 000, 071, 008, 001, 071, 026, 019, 052, 044, 036, 034, 061, 054, 017, 079, 072, 000
    RINGS_OF_PI_KOLA_COMBOS_SYSTEM_FULL_COMBOS E 968 10-22-2016 E 3 076, 187, 298, 409, 520, 631, 742, 853, 964, 076, 081, 116, 576, 192, 237, 687, 303, 348, 798, 414, 459, 909, 525, 570, 021, 626, 581, 121, 737, 692, 242, 848, 803, 353, 959, 914, 464, 071, 026, 575, 076, 034, 145, 256, 367, 478, 589, 700, 811, 922, 071, 036, 423, 039, 084, 534, 150, 195, 645, 261, 306, 756, 372, 417, 867, 473, 428, 031, 584, 539, 089, 695, 650, 200, 806, 761, 311, 917, 872, 422, 076, 093, 111, 129, 146, 164, 182, 199, 217, 234, 076, 082, 155, 094, 101, 173, 112, 119, 190, 129, 136, 208, 147, 154, 226, 163, 156, 083, 181, 174, 102, 198, 191, 120, 216, 209, 137, 234, 227, 155, 076, 058, 040, 023, 005, 012, 029, 047, 065, 082, 075, 069, 003, 057, 050, 021, 039, 032, 038, 022, 015, 056, 004, 002, 074, 011, 004, 068, 029, 021, 049, 046, 039, 031, 064, 057, 014, 082, 074, 003
    RINGS_OF_PI_KOLA_COMBOS_SYSTEM_FULL_COMBOS E 968 10-22-2016 E 5 078, 189, 300, 411, 522, 633, 744, 855, 966, 078, 083, 118, 578, 194, 239, 689, 305, 350, 800, 416, 461, 911, 527, 572, 023, 628, 583, 123, 739, 694, 244, 850, 805, 355, 961, 916, 466, 073, 028, 577, 078, 032, 143, 254, 365, 476, 587, 698, 809, 920, 073, 038, 421, 037, 082, 532, 148, 193, 643, 259, 304, 754, 370, 415, 865, 471, 426, 033, 582, 537, 087, 693, 648, 198, 804, 759, 309, 915, 870, 420, 078, 095, 113, 131, 148, 166, 184, 201, 219, 237, 079, 084, 157, 096, 103, 175, 114, 121, 193, 132, 139, 210, 149, 156, 228, 165, 158, 085, 183, 176, 104, 201, 193, 122, 218, 211, 140, 236, 229, 157, 078, 060, 043, 025, 007, 009, 027, 045, 062, 080, 077, 071, 001, 059, 052, 018, 042, 035, 036, 024, 017, 054, 006, 000, 071, 009, 002, 071, 026, 019, 051, 044, 037, 034, 062, 054, 016, 079, 072, 001
    RINGS_OF_PI_KOLA_COMBOS_SYSTEM_FULL_COMBOS E 968 10-22-2016 E 7 071, 182, 293, 404, 515, 626, 737, 848, 959, 071, 076, 111, 571, 187, 232, 682, 298, 343, 793, 409, 454, 904, 520, 565, 016, 621, 576, 116, 732, 687, 237, 843, 798, 348, 954, 909, 459, 066, 021, 570, 071, 039, 150, 261, 372, 483, 594, 705, 816, 927, 066, 031, 428, 044, 089, 539, 155, 200, 650, 266, 311, 761, 377, 422, 872, 478, 433, 026, 589, 544, 094, 700, 655, 205, 811, 766, 316, 922, 877, 427, 071, 089, 107, 124, 142, 159, 177, 195, 212, 230, 072, 078, 151, 090, 097, 168, 107, 114, 186, 125, 132, 204, 143, 150, 221, 159, 152, 078, 176, 169, 098, 194, 187, 115, 212, 205, 133, 229, 222, 151, 071, 054, 036, 018, 001, 016, 034, 051, 069, 087, 070, 065, 007, 053, 046, 025, 035, 028, 043, 017, 010, 060, 000, 006, 078, 015, 008, 064, 033, 026, 045, 051, 043, 027, 068, 061, 009, 086, 079, 007

    RINGS_OF_PI_KOLA_COMBOS_SYSTEM_FULL_COMBOS M 202 10-22-2016 M 10 094, 205, 316, 427, 538, 649, 760, 871, 982, 094, 099, 134, 594, 210, 255, 705, 321, 366, 816, 432, 477, 927, 543, 588, 039, 644, 599, 139, 755, 710, 260, 866, 821, 371, 977, 932, 482, 089, 044, 593, 094, 016, 127, 238, 349, 460, 571, 682, 793, 904, 089, 054, 405, 021, 066, 516, 132, 177, 627, 243, 288, 738, 354, 399, 849, 455, 410, 049, 566, 521, 071, 677, 632, 182, 788, 743, 293, 899, 854, 404, 094, 112, 130, 147, 165, 183, 200, 218, 236, 253, 095, 101, 174, 113, 120, 191, 130, 138, 209, 148, 155, 227, 166, 173, 244, 182, 175, 101, 199, 192, 121, 217, 210, 138, 235, 228, 156, 252, 245, 174, 094, 077, 059, 041, 024, 006, 011, 028, 046, 064, 093, 088, 015, 076, 069, 002, 058, 051, 020, 040, 033, 037, 023, 016, 055, 007, 014, 087, 010, 003, 068, 028, 020, 050, 045, 038, 033, 063, 056, 015
    RINGS_OF_PI_KOLA_COMBOS_SYSTEM_FULL_COMBOS M 202 10-22-2016 M 3 070, 181, 292, 403, 514, 625, 736, 847, 958, 070, 075, 110, 570, 186, 231, 681, 297, 342, 792, 408, 453, 903, 519, 564, 015, 620, 575, 115, 731, 686, 236, 842, 797, 347, 953, 908, 458, 065, 020, 569, 070, 040, 151, 262, 373, 484, 595, 706, 817, 928, 065, 030, 429, 045, 090, 540, 156, 201, 651, 267, 312, 762, 378, 423, 873, 479, 434, 025, 590, 545, 095, 701, 656, 206, 812, 767, 317, 923, 878, 428, 070, 088, 106, 123, 141, 158, 176, 194, 211, 229, 071, 077, 150, 089, 096, 167, 106, 113, 185, 124, 131, 203, 142, 149, 220, 158, 151, 077, 175, 168, 097, 193, 186, 114, 211, 204, 132, 228, 221, 150, 070, 053, 035, 017, 000, 017, 035, 052, 070, 088, 069, 064, 008, 052, 045, 026, 034, 027, 044, 016, 009, 061, 000, 007, 079, 016, 009, 063, 034, 027, 044, 052, 044, 026, 069, 062, 008, 087, 080, 008
    RINGS_OF_PI_KOLA_COMBOS_SYSTEM_FULL_COMBOS M 202 10-22-2016 M 5 086, 197, 308, 419, 530, 641, 752, 863, 974, 086, 091, 126, 586, 202, 247, 697, 313, 358, 808, 424, 469, 919, 535, 580, 031, 636, 591, 131, 747, 702, 252, 858, 813, 363, 969, 924, 474, 081, 036, 585, 086, 024, 135, 246, 357, 468, 579, 690, 801, 912, 081, 046, 413, 029, 074, 524, 140, 185, 635, 251, 296, 746, 362, 407, 857, 463, 418, 041, 574, 529, 079, 685, 640, 190, 796, 751, 301, 907, 862, 412, 086, 104, 121, 139, 157, 174, 192, 210, 227, 245, 087, 092, 165, 104, 112, 183, 122, 129, 201, 140, 147, 218, 157, 164, 236, 173, 166, 093, 191, 184, 112, 209, 202, 130, 226, 219, 148, 244, 237, 165, 086, 068, 051, 033, 015, 001, 019, 037, 054, 072, 085, 080, 006, 067, 060, 010, 050, 043, 028, 032, 025, 046, 014, 007, 063, 001, 006, 079, 018, 011, 059, 036, 029, 042, 054, 046, 024, 071, 064, 007
    RINGS_OF_PI_KOLA_COMBOS_SYSTEM_FULL_COMBOS M 202 10-22-2016 M 7 094, 205, 316, 427, 538, 649, 760, 871, 982, 094, 099, 134, 594, 210, 255, 705, 321, 366, 816, 432, 477, 927, 543, 588, 039, 644, 599, 139, 755, 710, 260, 866, 821, 371, 977, 932, 482, 089, 044, 593, 094, 016, 127, 238, 349, 460, 571, 682, 793, 904, 089, 054, 405, 021, 066, 516, 132, 177, 627, 243, 288, 738, 354, 399, 849, 455, 410, 049, 566, 521, 071, 677, 632, 182, 788, 743, 293, 899, 854, 404, 094, 112, 130, 147, 165, 183, 200, 218, 236, 253, 095, 101, 174, 113, 120, 192, 130, 138, 209, 148, 155, 227, 166, 173, 245, 182, 175, 101, 199, 192, 121, 217, 210, 138, 235, 228, 156, 252, 245, 174, 094, 077, 059, 041, 024, 006, 011, 028, 046, 064, 094, 088, 015, 076, 069, 002, 058, 051, 020, 041, 033, 037, 023, 016, 055, 007, 014, 087, 010, 003, 068, 028, 020, 050, 045, 038, 033, 063, 056, 015

      phantom3's avatar - Lottery-005.jpg
      iowa
      United States
      Member #81631
      October 25, 2009
      114 Posts
      Offline
      Posted: October 23, 2016, 11:08 am - IP Logged

      Eve winning numbers for 10/22/2016  #968  Pumpkin

        phantom3's avatar - Lottery-005.jpg
        iowa
        United States
        Member #81631
        October 25, 2009
        114 Posts
        Offline
        Posted: October 23, 2016, 11:12 am - IP Logged

        My picks for 10/23/2016  Sunday are  013 123 825 246 228 253 789 567   Pumpkin

          temptustoo's avatar - cat anm.gif
          usa
          United States
          Member #89197
          April 2, 2010
          2817 Posts
          Offline
          Posted: October 23, 2016, 8:16 pm - IP Logged

          10/23/2016 methods work outs for reference:

           

          KEYS:
          BAYRAM_PREV_DRAW_KEY_METHOD_FULL_KEYS C 10-22-2016 E 6, 5, 4
          BAYRAM_PREV_DRAW_KEY_METHOD_FULL_KEYS C 10-22-2016 M 9, 8, 7

          DIGIT_OUT_PAST_FIVE_DRAWS_FULL_DIGITS E 10-23-2016 E 7, 0
          DIGIT_OUT_PAST_FIVE_DRAWS_FULL_DIGITS M 10-22-2016 M 9
          DIGIT_OUT_PAST_FIVE_DRAWS_FULL_DIGITS M 10-23-2016 M 9


          JUSTAWINNER_KEY_METHOD_FULL_KEYS C 10-22-2016 E 4, 1, 0, 5, 9
          JUSTAWINNER_KEY_METHOD_FULL_KEYS C 10-22-2016 M 5, 9, 8, 4
          JUSTAWINNER_KEY_METHOD_FULL_KEYS E 10-22-2016 E 5, 9, 6, 2
          JUSTAWINNER_KEY_METHOD_FULL_KEYS M 10-22-2016 M 8, 4, 8, 3

          PAIRS:
          LAKERBEN_KNOCKOUT_P3_PAIRS_FULL_PAIRS C 202 10-22-2016 M 44, 46, 44, 48, 46, 48
          LAKERBEN_KNOCKOUT_P3_PAIRS_FULL_PAIRS C 968 10-22-2016 E 46, 49, 47, 64, 61, 63

          PREMOS_PREMIUM_PAIRS_FULL_PAIRS C 10-22-2016 E 62, 63, 64, 65, 66, 73, 74, 75, 76, 77, 84, 85, 86, 87, 88
          PREMOS_PREMIUM_PAIRS_FULL_PAIRS C 10-22-2016 M 36, 37, 38, 39, 30, 47, 48, 49, 40, 41, 58, 59, 50, 51, 52

          WHEELERS_PAIRS_FULL_PAIRS C 10-22-2016 E 96, 18, 30, 52, 74, 98, 10, 32, 54, 76, 68, 80, 02, 24, 46
          WHEELERS_PAIRS_FULL_PAIRS C 10-22-2016 M 20, 42, 64, 86, 08, 22, 44, 66, 88, 00, 02, 24, 46, 68, 80


          PIRATE_PAIRS_FULL_PAIRS C 202 10-22-2016 M 31, 36, 38, 34, 16, 18, 14, 68, 64, 84 30
          PIRATE_PAIRS_FULL_PAIRS C 202 10-22-2016 M 35, 34, 36, 32, 54, 56, 52, 46, 42, 62 10
          PIRATE_PAIRS_FULL_PAIRS C 202 10-22-2016 M 43, 46, 48, 41, 36, 38, 31, 68, 61, 81 14
          PIRATE_PAIRS_FULL_PAIRS C 202 10-22-2016 M 53, 52, 56, 51, 32, 36, 31, 26, 21, 61 7
          PIRATE_PAIRS_FULL_PAIRS C 202 10-22-2016 M 64, 68, 61, 63, 48, 41, 43, 81, 83, 13 21


          PIRATE_PAIRS_FULL_PAIRS C 968 10-22-2016 E 25, 23, 21, 24, 53, 51, 54, 31, 34, 14 7
          PIRATE_PAIRS_FULL_PAIRS C 968 10-22-2016 E 32, 35, 34, 36, 25, 24, 26, 54, 56, 46 10
          PIRATE_PAIRS_FULL_PAIRS C 968 10-22-2016 E 36, 32, 31, 38, 62, 61, 68, 21, 28, 18 30
          PIRATE_PAIRS_FULL_PAIRS C 968 10-22-2016 E 42, 43, 45, 48, 23, 25, 28, 35, 38, 58 14
          PIRATE_PAIRS_FULL_PAIRS C 968 10-22-2016 E 68, 64, 61, 63, 84, 81, 83, 41, 43, 13 21


          PIRATE_PAIRS_FULL_PAIRS E 968 10-22-2016 E 31, 35, 36, 38, 15, 16, 18, 56, 58, 68 10
          PIRATE_PAIRS_FULL_PAIRS E 968 10-22-2016 E 31, 35, 38, 34, 15, 18, 14, 58, 54, 84 7
          PIRATE_PAIRS_FULL_PAIRS E 968 10-22-2016 E 38, 31, 34, 35, 81, 84, 85, 14, 15, 45 14
          PIRATE_PAIRS_FULL_PAIRS E 968 10-22-2016 E 38, 32, 36, 35, 82, 86, 85, 26, 25, 65 30
          PIRATE_PAIRS_FULL_PAIRS E 968 10-22-2016 E 83, 86, 85, 84, 36, 35, 34, 65, 64, 54 21


          PIRATE_PAIRS_FULL_PAIRS M 202 10-22-2016 M 14, 16, 12, 15, 46, 42, 45, 62, 65, 25 30
          PIRATE_PAIRS_FULL_PAIRS M 202 10-22-2016 M 42, 45, 46, 47, 25, 26, 27, 56, 57, 67 10
          PIRATE_PAIRS_FULL_PAIRS M 202 10-22-2016 M 46, 41, 42, 45, 61, 62, 65, 12, 15, 25 21
          PIRATE_PAIRS_FULL_PAIRS M 202 10-22-2016 M 46, 42, 45, 47, 62, 65, 67, 25, 27, 57 14
          PIRATE_PAIRS_FULL_PAIRS M 202 10-22-2016 M 52, 56, 50, 54, 26, 20, 24, 60, 64, 04 7

           

          OVERDUE_ALLPOS_BOTHWAY_PAIR_INFO_FULL_PAIRS C 202 10-22-2016 M 01, 04, 07, 99, 77, 37 21
          OVERDUE_ALLPOS_BOTHWAY_PAIR_INFO_FULL_PAIRS C 202 10-22-2016 M 04, 07 30
          OVERDUE_ALLPOS_BOTHWAY_PAIR_INFO_FULL_PAIRS C 202 10-22-2016 M 88, 01, 02, 03, 04, 49, 07, 09, 99, 55, 14, 59, 17, 66, 68, 27, 77, 37, 39 10
          OVERDUE_ALLPOS_BOTHWAY_PAIR_INFO_FULL_PAIRS C 202 10-22-2016 M 88, 01, 02, 04, 07, 09, 99, 55, 59, 68, 77, 37, 39 14
          OVERDUE_ALLPOS_BOTHWAY_PAIR_INFO_FULL_PAIRS C 202 10-22-2016 M 88, 44, 01, 89, 02, 03, 04, 49, 07, 09, 99, 55, 13, 14, 59, 16, 17, 66, 68, 69, 26, 27, 29, 77, 78, 79, 37, 39 7


          OVERDUE_ALLPOS_BOTHWAY_PAIR_INFO_FULL_PAIRS C 968 10-22-2016 E 00, 88, 44, 01, 89, 03, 04, 49, 07, 08, 09, 99, 55, 13, 14, 59, 16, 17, 66, 68, 69, 26, 27, 29, 77, 78, 79, 37, 39 7
          OVERDUE_ALLPOS_BOTHWAY_PAIR_INFO_FULL_PAIRS C 968 10-22-2016 E 01, 04, 07, 99, 59, 77, 37, 39 21
          OVERDUE_ALLPOS_BOTHWAY_PAIR_INFO_FULL_PAIRS C 968 10-22-2016 E 04, 07, 99 30
          OVERDUE_ALLPOS_BOTHWAY_PAIR_INFO_FULL_PAIRS C 968 10-22-2016 E 88, 01, 03, 04, 07, 09, 99, 55, 59, 66, 68, 77, 37, 39 14
          OVERDUE_ALLPOS_BOTHWAY_PAIR_INFO_FULL_PAIRS C 968 10-22-2016 E 88, 01, 89, 03, 04, 49, 07, 09, 99, 55, 14, 59, 17, 66, 68, 69, 26, 27, 29, 77, 78, 79, 37, 39 10


          OVERDUE_ALLPOS_BOTHWAY_PAIR_INFO_FULL_PAIRS E 968 10-22-2016 E 00, 01, 45, 02, 04, 05, 07, 99, 12, 14, 22, 67, 27, 28, 77, 37, 39 21
          OVERDUE_ALLPOS_BOTHWAY_PAIR_INFO_FULL_PAIRS E 968 10-22-2016 E 00, 88, 01, 89, 45, 02, 46, 47, 04, 05, 06, 07, 09, 99, 55, 12, 57, 14, 59, 22, 66, 67, 68, 27, 28, 77, 79, 37, 39 14
          OVERDUE_ALLPOS_BOTHWAY_PAIR_INFO_FULL_PAIRS E 968 10-22-2016 E 00, 88, 44, 01, 89, 45, 02, 46, 03, 47, 04, 05, 49, 06, 07, 08, 09, 99, 55, 12, 13, 57, 14, 59, 16, 17, 22, 66, 67, 68, 69, 26, 27, 28, 29, 77, 78, 79, 37, 39 7
          OVERDUE_ALLPOS_BOTHWAY_PAIR_INFO_FULL_PAIRS E 968 10-22-2016 E 00, 88, 44, 01, 89, 45, 02, 46, 03, 47, 04, 05, 49, 06, 07, 08, 09, 99, 55, 12, 57, 14, 59, 17, 22, 66, 67, 68, 27, 28, 77, 78, 79, 37, 39 10
          OVERDUE_ALLPOS_BOTHWAY_PAIR_INFO_FULL_PAIRS E 968 10-22-2016 E 04, 05, 07, 99, 12, 14, 22, 67, 28 30
          OVERDUE_ALLPOS_BOTHWAY_PAIR_INFO_FULL_PAIRS E 968 10-22-2016 E 99, 22 45


          OVERDUE_ALLPOS_BOTHWAY_PAIR_INFO_FULL_PAIRS M 202 10-22-2016 M 01, 03, 07, 23, 29, 77, 37 45
          OVERDUE_ALLPOS_BOTHWAY_PAIR_INFO_FULL_PAIRS M 202 10-22-2016 M 01, 77 60
          OVERDUE_ALLPOS_BOTHWAY_PAIR_INFO_FULL_PAIRS M 202 10-22-2016 M 88, 01, 02, 03, 04, 48, 49, 07, 09, 11, 99, 55, 13, 14, 58, 59, 16, 17, 18, 19, 66, 23, 68, 69, 26, 27, 29, 33, 77, 36, 37, 38, 39 10
          OVERDUE_ALLPOS_BOTHWAY_PAIR_INFO_FULL_PAIRS M 202 10-22-2016 M 88, 01, 02, 03, 04, 48, 49, 07, 09, 11, 99, 55, 13, 59, 19, 23, 68, 69, 29, 33, 77, 36, 37, 38, 39 14
          OVERDUE_ALLPOS_BOTHWAY_PAIR_INFO_FULL_PAIRS M 202 10-22-2016 M 88, 01, 03, 04, 07, 09, 55, 23, 69, 29, 77, 37 30
          OVERDUE_ALLPOS_BOTHWAY_PAIR_INFO_FULL_PAIRS M 202 10-22-2016 M 88, 01, 03, 04, 48, 07, 09, 99, 55, 59, 19, 23, 69, 29, 33, 77, 37, 38 21
          OVERDUE_ALLPOS_BOTHWAY_PAIR_INFO_FULL_PAIRS M 202 10-22-2016 M 88, 44, 01, 89, 02, 03, 04, 48, 49, 07, 09, 11, 99, 55, 13, 14, 58, 59, 16, 17, 18, 19, 66, 23, 24, 68, 69, 26, 27, 29, 33, 77, 78, 79, 36, 37, 38, 39 7


          OVERDUE_ALLPOS_STRAIGHT_PAIR_INFO_FULL_PAIRS C 202 10-22-2016 M 01, 02, 04, 49, 07, 09, 91, 92, 93, 10, 54, 99, 12, 15, 59, 68, 69, 27, 28, 70, 73, 30, 76, 77, 37, 40, 85 21
          OVERDUE_ALLPOS_STRAIGHT_PAIR_INFO_FULL_PAIRS C 202 10-22-2016 M 68, 49, 92, 70, 54, 40 45
          OVERDUE_ALLPOS_STRAIGHT_PAIR_INFO_FULL_PAIRS C 202 10-22-2016 M 68, 69, 04, 49, 07, 09, 92, 70, 93, 30, 54, 76, 59, 37, 40 30
          OVERDUE_ALLPOS_STRAIGHT_PAIR_INFO_FULL_PAIRS C 202 10-22-2016 M 68, 70 60
          OVERDUE_ALLPOS_STRAIGHT_PAIR_INFO_FULL_PAIRS C 202 10-22-2016 M 88, 01, 02, 03, 04, 48, 05, 49, 06, 07, 08, 09, 90, 91, 92, 93, 94, 95, 97, 10, 98, 54, 99, 55, 12, 13, 14, 15, 59, 16, 17, 18, 62, 20, 66, 68, 69, 27, 28, 70, 71, 72, 73, 30, 74, 75, 76, 77, 78, 37, 39, 40, 41, 85, 86 10
          OVERDUE_ALLPOS_STRAIGHT_PAIR_INFO_FULL_PAIRS C 202 10-22-2016 M 88, 01, 02, 04, 05, 49, 06, 07, 09, 90, 91, 92, 93, 95, 97, 10, 98, 54, 99, 55, 12, 13, 15, 59, 20, 68, 69, 27, 28, 70, 73, 30, 75, 76, 77, 37, 39, 40, 41, 85, 86 14
          OVERDUE_ALLPOS_STRAIGHT_PAIR_INFO_FULL_PAIRS C 202 10-22-2016 M 88, 44, 01, 89, 02, 46, 03, 04, 48, 05, 49, 06, 07, 08, 09, 90, 91, 92, 93, 94, 95, 96, 97, 53, 10, 98, 54, 99, 55, 12, 13, 14, 15, 59, 16, 17, 18, 61, 62, 63, 20, 66, 68, 69, 26, 27, 28, 29, 70, 71, 72, 73, 30, 74, 31, 75, 76, 77, 78, 79, 37, 38, 39, 40, 41, 85, 42, 86, 87 7


          OVERDUE_ALLPOS_STRAIGHT_PAIR_INFO_FULL_PAIRS C 968 10-22-2016 E 00, 88, 44, 01, 89, 46, 03, 04, 48, 05, 49, 06, 07, 08, 09, 90, 91, 92, 93, 94, 95, 96, 97, 53, 10, 98, 54, 99, 55, 12, 13, 14, 15, 59, 16, 17, 18, 61, 62, 63, 66, 68, 69, 26, 27, 28, 29, 70, 71, 72, 73, 30, 74, 31, 75, 76, 77, 78, 79, 37, 38, 39, 80, 40, 41, 85, 42, 86, 87 7
          OVERDUE_ALLPOS_STRAIGHT_PAIR_INFO_FULL_PAIRS C 968 10-22-2016 E 01, 04, 49, 07, 09, 91, 92, 93, 95, 97, 10, 54, 99, 12, 15, 59, 68, 69, 27, 28, 70, 73, 30, 75, 76, 77, 37, 39, 40, 85 21
          OVERDUE_ALLPOS_STRAIGHT_PAIR_INFO_FULL_PAIRS C 968 10-22-2016 E 68, 49, 92, 70, 93, 54, 37, 40 45
          OVERDUE_ALLPOS_STRAIGHT_PAIR_INFO_FULL_PAIRS C 968 10-22-2016 E 68, 69, 04, 49, 07, 09, 92, 70, 93, 30, 54, 76, 99, 59, 37, 40 30
          OVERDUE_ALLPOS_STRAIGHT_PAIR_INFO_FULL_PAIRS C 968 10-22-2016 E 68, 70 60
          OVERDUE_ALLPOS_STRAIGHT_PAIR_INFO_FULL_PAIRS C 968 10-22-2016 E 88, 01, 03, 04, 05, 49, 06, 07, 08, 09, 90, 91, 92, 93, 95, 97, 10, 98, 54, 99, 55, 12, 13, 15, 59, 16, 66, 68, 69, 27, 28, 70, 73, 30, 75, 76, 77, 37, 39, 40, 41, 85, 86 14
          OVERDUE_ALLPOS_STRAIGHT_PAIR_INFO_FULL_PAIRS C 968 10-22-2016 E 88, 01, 89, 03, 04, 48, 05, 49, 06, 07, 08, 09, 90, 91, 92, 93, 94, 95, 96, 97, 10, 98, 54, 99, 55, 12, 13, 14, 15, 59, 16, 17, 18, 62, 66, 68, 69, 26, 27, 28, 29, 70, 71, 72, 73, 30, 74, 75, 76, 77, 78, 79, 37, 39, 40, 41, 85, 86, 87 10


          OVERDUE_ALLPOS_STRAIGHT_PAIR_INFO_FULL_PAIRS E 968 10-22-2016 E 00, 01, 89, 45, 02, 46, 47, 04, 05, 49, 07, 09, 91, 92, 93, 50, 10, 54, 99, 12, 13, 57, 14, 15, 59, 16, 60, 62, 20, 21, 22, 67, 68, 25, 69, 27, 28, 70, 71, 72, 73, 30, 76, 77, 79, 37, 39, 80, 82, 40, 41, 85, 42, 87 21
          OVERDUE_ALLPOS_STRAIGHT_PAIR_INFO_FULL_PAIRS E 968 10-22-2016 E 00, 88, 01, 89, 45, 02, 46, 47, 04, 05, 49, 06, 07, 09, 90, 91, 92, 93, 50, 95, 97, 10, 98, 54, 99, 55, 12, 13, 57, 14, 15, 59, 16, 60, 62, 20, 64, 21, 65, 22, 66, 67, 68, 25, 69, 27, 28, 70, 71, 72, 73, 30, 74, 75, 76, 77, 79, 37, 39, 80, 82, 40, 41, 85, 42, 86, 87 14
          OVERDUE_ALLPOS_STRAIGHT_PAIR_INFO_FULL_PAIRS E 968 10-22-2016 E 00, 88, 44, 01, 89, 45, 02, 46, 03, 47, 04, 48, 05, 49, 06, 07, 08, 09, 90, 91, 92, 93, 94, 50, 95, 96, 97, 53, 10, 98, 54, 99, 55, 12, 13, 57, 14, 15, 59, 16, 17, 18, 60, 61, 62, 63, 20, 64, 21, 65, 22, 66, 67, 68, 25, 69, 26, 27, 28, 29, 70, 71, 72, 73, 30, 74, 31, 75, 76, 77, 78, 79, 37, 38, 39, 80, 82, 40, 41, 85, 42, 86, 87 7
          OVERDUE_ALLPOS_STRAIGHT_PAIR_INFO_FULL_PAIRS E 968 10-22-2016 E 00, 88, 44, 01, 89, 45, 02, 46, 03, 47, 04, 48, 05, 49, 06, 07, 08, 09, 90, 91, 92, 93, 94, 50, 95, 97, 10, 98, 54, 99, 55, 12, 13, 57, 14, 15, 59, 16, 17, 18, 60, 62, 20, 64, 21, 65, 22, 66, 67, 68, 25, 69, 27, 28, 70, 71, 72, 73, 30, 74, 75, 76, 77, 78, 79, 37, 39, 80, 82, 40, 41, 85, 42, 86, 87 10
          OVERDUE_ALLPOS_STRAIGHT_PAIR_INFO_FULL_PAIRS E 968 10-22-2016 E 67, 46, 68, 25, 69, 49, 92, 70, 72, 12, 15, 16, 42 60
          OVERDUE_ALLPOS_STRAIGHT_PAIR_INFO_FULL_PAIRS E 968 10-22-2016 E 89, 46, 47, 04, 05, 49, 07, 09, 91, 92, 93, 50, 54, 99, 12, 13, 57, 14, 15, 59, 16, 21, 22, 67, 68, 25, 69, 28, 70, 71, 72, 30, 76, 37, 80, 82, 40, 41, 42, 87 30
          OVERDUE_ALLPOS_STRAIGHT_PAIR_INFO_FULL_PAIRS E 968 10-22-2016 E 89, 46, 47, 49, 92, 54, 99, 12, 13, 57, 15, 16, 22, 67, 68, 25, 69, 70, 71, 72, 82, 40, 41, 42 45


          OVERDUE_ALLPOS_STRAIGHT_PAIR_INFO_FULL_PAIRS M 202 10-22-2016 M 01, 03, 49, 07, 92, 93, 52, 97, 10, 54, 17, 23, 68, 29, 70, 73, 30, 75, 32, 77, 37, 40, 84 45
          OVERDUE_ALLPOS_STRAIGHT_PAIR_INFO_FULL_PAIRS M 202 10-22-2016 M 01, 68, 03, 70, 52, 97, 10, 54, 32, 77, 37, 84 60
          OVERDUE_ALLPOS_STRAIGHT_PAIR_INFO_FULL_PAIRS M 202 10-22-2016 M 88, 01, 02, 03, 04, 48, 05, 49, 06, 07, 08, 09, 90, 91, 92, 93, 94, 95, 96, 52, 97, 53, 10, 98, 54, 11, 99, 55, 12, 13, 14, 58, 15, 59, 16, 17, 18, 19, 61, 62, 63, 20, 66, 23, 24, 68, 69, 26, 27, 28, 29, 70, 71, 72, 73, 30, 74, 31, 75, 32, 76, 33, 77, 34, 78, 36, 37, 38, 39, 81, 83, 40, 84, 41, 85, 86 10
          OVERDUE_ALLPOS_STRAIGHT_PAIR_INFO_FULL_PAIRS M 202 10-22-2016 M 88, 01, 02, 03, 04, 48, 05, 49, 06, 07, 08, 09, 90, 91, 92, 93, 94, 95, 96, 52, 97, 53, 10, 98, 54, 11, 99, 55, 12, 13, 15, 59, 17, 18, 19, 61, 63, 20, 23, 24, 68, 69, 26, 27, 28, 29, 70, 73, 30, 31, 75, 32, 76, 33, 77, 34, 78, 36, 37, 38, 39, 83, 40, 84, 41, 85, 86 14
          OVERDUE_ALLPOS_STRAIGHT_PAIR_INFO_FULL_PAIRS M 202 10-22-2016 M 88, 01, 02, 03, 04, 48, 49, 07, 09, 90, 91, 92, 93, 95, 96, 52, 97, 53, 10, 98, 54, 99, 55, 12, 15, 59, 17, 18, 19, 23, 24, 68, 69, 26, 27, 28, 29, 70, 73, 30, 31, 75, 32, 76, 33, 77, 78, 36, 37, 38, 83, 40, 84, 85 21
          OVERDUE_ALLPOS_STRAIGHT_PAIR_INFO_FULL_PAIRS M 202 10-22-2016 M 88, 01, 02, 03, 04, 49, 07, 09, 90, 92, 93, 96, 52, 97, 53, 10, 98, 54, 55, 59, 17, 23, 68, 69, 29, 70, 73, 30, 75, 32, 76, 77, 37, 83, 40, 84, 85 30
          OVERDUE_ALLPOS_STRAIGHT_PAIR_INFO_FULL_PAIRS M 202 10-22-2016 M 88, 44, 01, 89, 02, 46, 03, 04, 48, 05, 49, 06, 07, 08, 09, 90, 91, 92, 93, 94, 95, 96, 52, 97, 53, 10, 98, 54, 11, 99, 55, 12, 13, 14, 58, 15, 59, 16, 17, 18, 19, 61, 62, 63, 20, 66, 23, 24, 68, 69, 26, 27, 28, 29, 70, 71, 72, 73, 30, 74, 31, 75, 32, 76, 33, 77, 34, 78, 79, 36, 37, 38, 39, 81, 83, 40, 84, 41, 85, 42, 86, 87 7


          COMBOS:

          AMBER_AMAZING_POWER_OF_THREE_ONLY_TRIANGULATED_FULL_COMBOS C 202 10-22-2016 M 066, 068, 399, 697, 733, 439
          AMBER_AMAZING_POWER_OF_THREE_ONLY_TRIANGULATED_FULL_COMBOS C 968 10-22-2016 E 874, 672, 107, 201, 541, 043

          AMBER_AMAZING_POWER_OF_THREE_SIX_NINE_VARIATION_SYSTEM_FULL_COMBOS C 202 10-22-2016 M 060, 018, 060, 012, 120, 018, 120, 006, 180, 012, 180, 006
          AMBER_AMAZING_POWER_OF_THREE_SIX_NINE_VARIATION_SYSTEM_FULL_COMBOS C 968 10-22-2016 E 273, 672, 275, 448, 541, 872, 545, 424, 811, 848, 813, 624

          EKEM6078_ITSINTHEBOX_TTT_FULL_COMBOS C 10-22-2016 E 567, 988, 109, 591, 680, 789, 589, 781, 690, 680, 581, 789, 189, 578, 968, 908, 569, 768, 109, 908, 568, 689, 895, 956, 678, 788, 886, 867, 890, 081, 019, 198, 889, 890, 098, 088, 568, 987, 989, 108, 590, 681, 689, 780, 769, 885, 881, 909, 196, 085, 087, 986
          EKEM6078_ITSINTHEBOX_TTT_FULL_COMBOS C 10-22-2016 M 901, 222, 543, 925, 024, 123, 923, 125, 024, 024, 925, 123, 523, 912, 202, 242, 902, 102, 542, 342, 902, 022, 229, 290, 012, 122, 220, 201, 224, 425, 452, 522, 223, 234, 432, 422, 902, 221, 223, 542, 924, 025, 023, 124, 102, 229, 225, 342, 520, 429, 421, 320

          LAKERBEN_MIRROR_ADJACENT_INFO_FULL_COMBOS C 10-22-2016 E 480, 517, 793, 457, 819, 073, 413, 017, 859, 879, 417, 013, 713, 401, 587, 597, 485, 087, 795, 397, 481, 815, 154, 548, 807, 071, 178, 180, 159, 917, 975, 751, 173, 739, 931, 917, 487, 510, 513, 797, 459, 817, 813, 079, 085, 714, 717, 395, 758, 914, 910, 378
          LAKERBEN_MIRROR_ADJACENT_INFO_FULL_COMBOS C 10-22-2016 M 713, 951, 137, 791, 153, 317, 757, 351, 193, 113, 751, 357, 157, 735, 911, 931, 719, 311, 139, 731, 715, 159, 597, 971, 131, 315, 511, 513, 593, 351, 319, 195, 517, 173, 375, 351, 711, 953, 957, 131, 793, 151, 157, 313, 319, 157, 151, 739, 191, 357, 353, 711

          LAKERBEN_WINP3_SYSTEM_FULL_COMBOS C 10-22-2016 E 324, 546, 768, 980, 102
          LAKERBEN_WINP3_SYSTEM_FULL_COMBOS C 10-22-2016 M 990, 991, 992, 993, 994, 995, 996, 997, 998, 999

          LOTTOLAUGHS_90_DEGREES_SYSTEM_FULL_COMBOS C 202 10-22-2016 M 524, 534, 544, 079, 089, 099, 525, 535, 545, 070, 080, 090, 523, 533, 543, 078, 088, 098
          LOTTOLAUGHS_90_DEGREES_SYSTEM_FULL_COMBOS C 968 10-22-2016 E 056, 066, 076, 001, 011, 021, 057, 067, 077, 002, 012, 022, 055, 065, 075, 000, 010, 020

          LUCKY_MAYBELL_TTT_FULL_COMBOS C 10-22-2016 E 458, 934, 382, 493, 538, 842, 432, 833, 598, 548, 433, 832, 332, 483, 954, 984, 459, 854, 389, 284, 453, 539, 394, 945, 584, 843, 345, 358, 398, 833, 839, 393, 342, 428, 823, 834, 454, 938, 932, 384, 498, 533, 532, 848, 859, 434, 433, 289, 395, 834, 838, 245
          LUCKY_MAYBELL_TTT_FULL_COMBOS C 10-22-2016 M 586, 566, 042, 550, 864, 662, 562, 660, 854, 864, 560, 662, 062, 566, 586, 546, 585, 686, 045, 246, 586, 865, 655, 558, 866, 666, 668, 686, 654, 460, 405, 056, 662, 624, 426, 466, 586, 566, 562, 046, 554, 860, 862, 664, 685, 665, 660, 245, 058, 465, 466, 268
          LUCKY_MAYBELL_TTT_FULL_COMBOS E 10-22-2016 E 561, 667, 128, 561, 662, 178, 568, 161, 662, 672, 561, 168, 168, 516, 667, 627, 566, 167, 126, 827, 566, 666, 665, 656, 617, 176, 676, 661, 662, 261, 216, 166, 678, 782, 286, 267, 567, 661, 668, 127, 562, 661, 668, 172, 166, 765, 761, 826, 166, 265, 261, 876
          LUCKY_MAYBELL_TTT_FULL_COMBOS M 10-22-2016 M 883, 223, 006, 820, 820, 336, 826, 320, 820, 830, 820, 326, 026, 832, 283, 203, 882, 383, 002, 603, 882, 822, 228, 288, 833, 332, 238, 283, 220, 020, 002, 022, 236, 360, 062, 023, 883, 223, 226, 003, 820, 820, 826, 330, 382, 328, 320, 602, 028, 028, 023, 638

          MSWIZZ_ALL_INFO_FULL_COMBOS C 10-22-2016 E 968, 054, 123, 901, 652, 843, 953, 851, 602, 642, 951, 853, 153, 985, 064, 024, 960, 864, 120, 324, 965, 650, 509, 096, 684, 845, 546, 568, 502, 251, 210, 105, 543, 432, 235, 254, 964, 058, 053, 124, 902, 651, 653, 842, 860, 459, 451, 320, 106, 259, 258, 346, 968, 349, 210, 932, 641, 890, 940, 842, 631, 691, 942, 840, 240, 984, 369, 319, 963, 869, 213, 019, 964, 643, 439, 396, 689, 894, 496, 468, 431, 142, 123, 234, 490, 901, 104, 149, 969, 348, 340, 219, 931, 642, 640, 891, 863, 949, 942, 013, 236, 149, 148, 096
          MSWIZZ_ALL_INFO_FULL_COMBOS C 10-22-2016 M 202, 387, 456, 234, 085, 276, 286, 284, 035, 075, 284, 286, 486, 228, 307, 357, 203, 207, 453, 657, 208, 083, 832, 320, 027, 278, 870, 802, 835, 584, 543, 438, 876, 765, 568, 587, 207, 382, 386, 457, 235, 084, 086, 275, 203, 782, 784, 653, 430, 582, 582, 670, 202, 783, 654, 276, 085, 234, 284, 286, 075, 035, 286, 284, 684, 228, 703, 753, 207, 203, 657, 453, 208, 087, 872, 720, 023, 238, 830, 802, 875, 586, 567, 678, 834, 345, 548, 583, 203, 782, 784, 653, 275, 086, 084, 235, 207, 382, 386, 457, 670, 582, 582, 430

           

          PIRATE_COMBOS_SYSTEM_FULL_COMBOS C 202 10-22-2016 M 10 358, 351, 357, 359, 350, 348, 341, 347, 349, 340, 368, 361, 367, 369, 360, 328, 321, 327, 329, 320, 548, 541, 547, 549, 540, 568, 561, 567, 569, 560, 528, 521, 527, 529, 520, 468, 461, 467, 469, 460, 428, 421, 427, 429, 420, 628, 621, 627, 629, 620, 338, 331, 337, 339, 330, 558, 551, 557, 559, 550, 448, 441, 447, 449, 440, 668, 661, 667, 669, 660, 228, 221, 227, 229, 220, 333, 555, 444, 666, 222, 358, 351, 357, 359, 350, 348, 341, 347, 349, 340, 368, 361, 367, 369, 360, 328, 321, 327, 329, 320, 341, 349, 360, 549, 461, 551, 447, 669, 333, 555
          PIRATE_COMBOS_SYSTEM_FULL_COMBOS C 202 10-22-2016 M 14 435, 432, 437, 439, 430, 465, 462, 467, 469, 460, 485, 482, 487, 489, 480, 415, 412, 417, 419, 410, 365, 362, 367, 369, 360, 385, 382, 387, 389, 380, 315, 312, 317, 319, 310, 685, 682, 687, 689, 680, 615, 612, 617, 619, 610, 815, 812, 817, 819, 810, 445, 442, 447, 449, 440, 335, 332, 337, 339, 330, 665, 662, 667, 669, 660, 885, 882, 887, 889, 880, 115, 112, 117, 119, 110, 444, 333, 666, 888, 111, 435, 432, 437, 439, 430, 465, 462, 467, 469, 460, 485, 482, 487, 489, 480, 415, 412, 417, 419, 410, 462, 469, 480, 369, 682, 332, 667, 889, 444, 333
          PIRATE_COMBOS_SYSTEM_FULL_COMBOS C 202 10-22-2016 M 21 645, 642, 647, 640, 649, 685, 682, 687, 680, 689, 615, 612, 617, 610, 619, 635, 632, 637, 630, 639, 485, 482, 487, 480, 489, 415, 412, 417, 410, 419, 435, 432, 437, 430, 439, 815, 812, 817, 810, 819, 835, 832, 837, 830, 839, 135, 132, 137, 130, 139, 665, 662, 667, 660, 669, 445, 442, 447, 440, 449, 885, 882, 887, 880, 889, 115, 112, 117, 110, 119, 335, 332, 337, 330, 339, 666, 444, 888, 111, 333, 645, 642, 647, 640, 649, 685, 682, 687, 680, 689, 615, 612, 617, 610, 619, 635, 632, 637, 630, 639, 682, 680, 619, 480, 812, 442, 887, 110, 666, 444
          PIRATE_COMBOS_SYSTEM_FULL_COMBOS C 202 10-22-2016 M 30 312, 315, 317, 319, 310, 362, 365, 367, 369, 360, 382, 385, 387, 389, 380, 342, 345, 347, 349, 340, 162, 165, 167, 169, 160, 182, 185, 187, 189, 180, 142, 145, 147, 149, 140, 682, 685, 687, 689, 680, 642, 645, 647, 649, 640, 842, 845, 847, 849, 840, 332, 335, 337, 339, 330, 112, 115, 117, 119, 110, 662, 665, 667, 669, 660, 882, 885, 887, 889, 880, 442, 445, 447, 449, 440, 333, 111, 666, 888, 444, 312, 315, 317, 319, 310, 362, 365, 367, 369, 360, 382, 385, 387, 389, 380, 342, 345, 347, 349, 340, 365, 369, 380, 169, 685, 115, 667, 889, 333, 111
          PIRATE_COMBOS_SYSTEM_FULL_COMBOS C 202 10-22-2016 M 7 538, 534, 530, 537, 539, 528, 524, 520, 527, 529, 568, 564, 560, 567, 569, 518, 514, 510, 517, 519, 328, 324, 320, 327, 329, 368, 364, 360, 367, 369, 318, 314, 310, 317, 319, 268, 264, 260, 267, 269, 218, 214, 210, 217, 219, 618, 614, 610, 617, 619, 558, 554, 550, 557, 559, 338, 334, 330, 337, 339, 228, 224, 220, 227, 229, 668, 664, 660, 667, 669, 118, 114, 110, 117, 119, 555, 333, 222, 666, 111, 538, 534, 530, 537, 539, 528, 524, 520, 527, 529, 568, 564, 560, 567, 569, 518, 514, 510, 517, 519, 524, 527, 569, 327, 264, 334, 220, 667, 555, 333


          PIRATE_COMBOS_SYSTEM_FULL_COMBOS C 968 10-22-2016 E 10 321, 328, 320, 327, 329, 351, 358, 350, 357, 359, 341, 348, 340, 347, 349, 361, 368, 360, 367, 369, 251, 258, 250, 257, 259, 241, 248, 240, 247, 249, 261, 268, 260, 267, 269, 541, 548, 540, 547, 549, 561, 568, 560, 567, 569, 461, 468, 460, 467, 469, 331, 338, 330, 337, 339, 221, 228, 220, 227, 229, 551, 558, 550, 557, 559, 441, 448, 440, 447, 449, 661, 668, 660, 667, 669, 333, 222, 555, 444, 666, 321, 328, 320, 327, 329, 351, 358, 350, 357, 359, 341, 348, 340, 347, 349, 361, 368, 360, 367, 369, 358, 357, 349, 257, 548, 228, 550, 447, 333, 222
          PIRATE_COMBOS_SYSTEM_FULL_COMBOS C 968 10-22-2016 E 14 426, 421, 427, 420, 429, 436, 431, 437, 430, 439, 456, 451, 457, 450, 459, 486, 481, 487, 480, 489, 236, 231, 237, 230, 239, 256, 251, 257, 250, 259, 286, 281, 287, 280, 289, 356, 351, 357, 350, 359, 386, 381, 387, 380, 389, 586, 581, 587, 580, 589, 446, 441, 447, 440, 449, 226, 221, 227, 220, 229, 336, 331, 337, 330, 339, 556, 551, 557, 550, 559, 886, 881, 887, 880, 889, 444, 222, 333, 555, 888, 426, 421, 427, 420, 429, 436, 431, 437, 430, 439, 456, 451, 457, 450, 459, 486, 481, 487, 480, 489, 431, 430, 459, 230, 351, 221, 337, 550, 444, 222
          PIRATE_COMBOS_SYSTEM_FULL_COMBOS C 968 10-22-2016 E 21 682, 685, 680, 687, 689, 642, 645, 640, 647, 649, 612, 615, 610, 617, 619, 632, 635, 630, 637, 639, 842, 845, 840, 847, 849, 812, 815, 810, 817, 819, 832, 835, 830, 837, 839, 412, 415, 410, 417, 419, 432, 435, 430, 437, 439, 132, 135, 130, 137, 139, 662, 665, 660, 667, 669, 882, 885, 880, 887, 889, 442, 445, 440, 447, 449, 112, 115, 110, 117, 119, 332, 335, 330, 337, 339, 666, 888, 444, 111, 333, 682, 685, 680, 687, 689, 642, 645, 640, 647, 649, 612, 615, 610, 617, 619, 632, 635, 630, 637, 639, 645, 647, 619, 847, 415, 885, 440, 117, 666, 888
          PIRATE_COMBOS_SYSTEM_FULL_COMBOS C 968 10-22-2016 E 30 364, 365, 360, 367, 369, 324, 325, 320, 327, 329, 314, 315, 310, 317, 319, 384, 385, 380, 387, 389, 624, 625, 620, 627, 629, 614, 615, 610, 617, 619, 684, 685, 680, 687, 689, 214, 215, 210, 217, 219, 284, 285, 280, 287, 289, 184, 185, 180, 187, 189, 334, 335, 330, 337, 339, 664, 665, 660, 667, 669, 224, 225, 220, 227, 229, 114, 115, 110, 117, 119, 884, 885, 880, 887, 889, 333, 666, 222, 111, 888, 364, 365, 360, 367, 369, 324, 325, 320, 327, 329, 314, 315, 310, 317, 319, 384, 385, 380, 387, 389, 325, 327, 319, 627, 215, 665, 220, 117, 333, 666
          PIRATE_COMBOS_SYSTEM_FULL_COMBOS C 968 10-22-2016 E 7 256, 258, 250, 257, 259, 236, 238, 230, 237, 239, 216, 218, 210, 217, 219, 246, 248, 240, 247, 249, 536, 538, 530, 537, 539, 516, 518, 510, 517, 519, 546, 548, 540, 547, 549, 316, 318, 310, 317, 319, 346, 348, 340, 347, 349, 146, 148, 140, 147, 149, 226, 228, 220, 227, 229, 556, 558, 550, 557, 559, 336, 338, 330, 337, 339, 116, 118, 110, 117, 119, 446, 448, 440, 447, 449, 222, 555, 333, 111, 444, 256, 258, 250, 257, 259, 236, 238, 230, 237, 239, 216, 218, 210, 217, 219, 246, 248, 240, 247, 249, 238, 237, 219, 537, 318, 558, 330, 117, 222, 555


          PIRATE_COMBOS_SYSTEM_FULL_COMBOS E 968 10-22-2016 E 10 312, 314, 319, 317, 310, 352, 354, 359, 357, 350, 362, 364, 369, 367, 360, 382, 384, 389, 387, 380, 152, 154, 159, 157, 150, 162, 164, 169, 167, 160, 182, 184, 189, 187, 180, 562, 564, 569, 567, 560, 582, 584, 589, 587, 580, 682, 684, 689, 687, 680, 332, 334, 339, 337, 330, 112, 114, 119, 117, 110, 552, 554, 559, 557, 550, 662, 664, 669, 667, 660, 882, 884, 889, 887, 880, 333, 111, 555, 666, 888, 312, 314, 319, 317, 310, 352, 354, 359, 357, 350, 362, 364, 369, 367, 360, 382, 384, 389, 387, 380, 354, 357, 360, 157, 564, 114, 559, 667, 333, 111
          PIRATE_COMBOS_SYSTEM_FULL_COMBOS E 968 10-22-2016 E 14 386, 382, 389, 387, 380, 316, 312, 319, 317, 310, 346, 342, 349, 347, 340, 356, 352, 359, 357, 350, 816, 812, 819, 817, 810, 846, 842, 849, 847, 840, 856, 852, 859, 857, 850, 146, 142, 149, 147, 140, 156, 152, 159, 157, 150, 456, 452, 459, 457, 450, 336, 332, 339, 337, 330, 886, 882, 889, 887, 880, 116, 112, 119, 117, 110, 446, 442, 449, 447, 440, 556, 552, 559, 557, 550, 333, 888, 111, 444, 555, 386, 382, 389, 387, 380, 316, 312, 319, 317, 310, 346, 342, 349, 347, 340, 356, 352, 359, 357, 350, 312, 317, 340, 817, 142, 882, 119, 447, 333, 888
          PIRATE_COMBOS_SYSTEM_FULL_COMBOS E 968 10-22-2016 E 21 831, 839, 832, 837, 830, 861, 869, 862, 867, 860, 851, 859, 852, 857, 850, 841, 849, 842, 847, 840, 361, 369, 362, 367, 360, 351, 359, 352, 357, 350, 341, 349, 342, 347, 340, 651, 659, 652, 657, 650, 641, 649, 642, 647, 640, 541, 549, 542, 547, 540, 881, 889, 882, 887, 880, 331, 339, 332, 337, 330, 661, 669, 662, 667, 660, 551, 559, 552, 557, 550, 441, 449, 442, 447, 440, 888, 333, 666, 555, 444, 831, 839, 832, 837, 830, 861, 869, 862, 867, 860, 851, 859, 852, 857, 850, 841, 849, 842, 847, 840, 869, 867, 850, 367, 659, 339, 662, 557, 888, 333
          PIRATE_COMBOS_SYSTEM_FULL_COMBOS E 968 10-22-2016 E 30 384, 389, 387, 380, 381, 324, 329, 327, 320, 321, 364, 369, 367, 360, 361, 354, 359, 357, 350, 351, 824, 829, 827, 820, 821, 864, 869, 867, 860, 861, 854, 859, 857, 850, 851, 264, 269, 267, 260, 261, 254, 259, 257, 250, 251, 654, 659, 657, 650, 651, 334, 339, 337, 330, 331, 884, 889, 887, 880, 881, 224, 229, 227, 220, 221, 664, 669, 667, 660, 661, 554, 559, 557, 550, 551, 333, 888, 222, 666, 555, 384, 389, 387, 380, 381, 324, 329, 327, 320, 321, 364, 369, 367, 360, 361, 354, 359, 357, 350, 351, 329, 320, 361, 820, 269, 889, 227, 660, 333, 888
          PIRATE_COMBOS_SYSTEM_FULL_COMBOS E 968 10-22-2016 E 7 312, 316, 319, 317, 310, 352, 356, 359, 357, 350, 382, 386, 389, 387, 380, 342, 346, 349, 347, 340, 152, 156, 159, 157, 150, 182, 186, 189, 187, 180, 142, 146, 149, 147, 140, 582, 586, 589, 587, 580, 542, 546, 549, 547, 540, 842, 846, 849, 847, 840, 332, 336, 339, 337, 330, 112, 116, 119, 117, 110, 552, 556, 559, 557, 550, 882, 886, 889, 887, 880, 442, 446, 449, 447, 440, 333, 111, 555, 888, 444, 312, 316, 319, 317, 310, 352, 356, 359, 357, 350, 382, 386, 389, 387, 380, 342, 346, 349, 347, 340, 356, 357, 380, 157, 586, 116, 559, 887, 333, 111


          PIRATE_COMBOS_SYSTEM_FULL_COMBOS M 202 10-22-2016 M 10 428, 420, 421, 423, 429, 458, 450, 451, 453, 459, 468, 460, 461, 463, 469, 478, 470, 471, 473, 479, 258, 250, 251, 253, 259, 268, 260, 261, 263, 269, 278, 270, 271, 273, 279, 568, 560, 561, 563, 569, 578, 570, 571, 573, 579, 678, 670, 671, 673, 679, 448, 440, 441, 443, 449, 228, 220, 221, 223, 229, 558, 550, 551, 553, 559, 668, 660, 661, 663, 669, 778, 770, 771, 773, 779, 444, 222, 555, 666, 777, 428, 420, 421, 423, 429, 458, 450, 451, 453, 459, 468, 460, 461, 463, 469, 478, 470, 471, 473, 479, 450, 453, 469, 253, 560, 220, 551, 663, 444, 222
          PIRATE_COMBOS_SYSTEM_FULL_COMBOS M 202 10-22-2016 M 14 461, 468, 460, 463, 469, 421, 428, 420, 423, 429, 451, 458, 450, 453, 459, 471, 478, 470, 473, 479, 621, 628, 620, 623, 629, 651, 658, 650, 653, 659, 671, 678, 670, 673, 679, 251, 258, 250, 253, 259, 271, 278, 270, 273, 279, 571, 578, 570, 573, 579, 441, 448, 440, 443, 449, 661, 668, 660, 663, 669, 221, 228, 220, 223, 229, 551, 558, 550, 553, 559, 771, 778, 770, 773, 779, 444, 666, 222, 555, 777, 461, 468, 460, 463, 469, 421, 428, 420, 423, 429, 451, 458, 450, 453, 459, 471, 478, 470, 473, 479, 428, 423, 459, 623, 258, 668, 220, 553, 444, 666
          PIRATE_COMBOS_SYSTEM_FULL_COMBOS M 202 10-22-2016 M 21 467, 468, 460, 463, 469, 417, 418, 410, 413, 419, 427, 428, 420, 423, 429, 457, 458, 450, 453, 459, 617, 618, 610, 613, 619, 627, 628, 620, 623, 629, 657, 658, 650, 653, 659, 127, 128, 120, 123, 129, 157, 158, 150, 153, 159, 257, 258, 250, 253, 259, 447, 448, 440, 443, 449, 667, 668, 660, 663, 669, 117, 118, 110, 113, 119, 227, 228, 220, 223, 229, 557, 558, 550, 553, 559, 444, 666, 111, 222, 555, 467, 468, 460, 463, 469, 417, 418, 410, 413, 419, 427, 428, 420, 423, 429, 457, 458, 450, 453, 459, 418, 413, 429, 613, 128, 668, 110, 223, 444, 666
          PIRATE_COMBOS_SYSTEM_FULL_COMBOS M 202 10-22-2016 M 30 148, 147, 143, 149, 140, 168, 167, 163, 169, 160, 128, 127, 123, 129, 120, 158, 157, 153, 159, 150, 468, 467, 463, 469, 460, 428, 427, 423, 429, 420, 458, 457, 453, 459, 450, 628, 627, 623, 629, 620, 658, 657, 653, 659, 650, 258, 257, 253, 259, 250, 118, 117, 113, 119, 110, 448, 447, 443, 449, 440, 668, 667, 663, 669, 660, 228, 227, 223, 229, 220, 558, 557, 553, 559, 550, 111, 444, 666, 222, 555, 148, 147, 143, 149, 140, 168, 167, 163, 169, 160, 128, 127, 123, 129, 120, 158, 157, 153, 159, 150, 167, 169, 120, 469, 627, 447, 663, 229, 111, 444
          PIRATE_COMBOS_SYSTEM_FULL_COMBOS M 202 10-22-2016 M 7 527, 528, 521, 523, 529, 567, 568, 561, 563, 569, 507, 508, 501, 503, 509, 547, 548, 541, 543, 549, 267, 268, 261, 263, 269, 207, 208, 201, 203, 209, 247, 248, 241, 243, 249, 607, 608, 601, 603, 609, 647, 648, 641, 643, 649, 047, 048, 041, 043, 049, 557, 558, 551, 553, 559, 227, 228, 221, 223, 229, 667, 668, 661, 663, 669, 007, 008, 001, 003, 009, 447, 448, 441, 443, 449, 555, 222, 666, 000, 444, 527, 528, 521, 523, 529, 567, 568, 561, 563, 569, 507, 508, 501, 503, 509, 547, 548, 541, 543, 549, 568, 563, 509, 263, 608, 228, 661, 003, 555, 222

           

          POWERTRAILS_COMBOS_SYSTEM_FULL_COMBOS C 202 10-22-2016 M 10 356, 348, 561, 529, 427, 480, 354, 562, 542, 428, 617, 672, 279, 298, 891, 091, 072, 916, 985, 784, 723, 097, 918, 978, 782, 164, 148, 845, 852, 256, 354, 546, 462, 628, 390, 317, 350, 351, 340, 341, 327, 311, 300, 330, 331, 097, 971, 718, 182, 053, 064, 093, 096, 073, 076, 084, 066, 033, 003, 006
          POWERTRAILS_COMBOS_SYSTEM_FULL_COMBOS C 202 10-22-2016 M 14 438, 465, 382, 319, 617, 650, 436, 381, 361, 615, 827, 871, 179, 195, 592, 092, 071, 928, 953, 756, 714, 097, 925, 975, 751, 286, 265, 563, 531, 138, 436, 368, 681, 815, 490, 427, 430, 432, 460, 462, 417, 422, 400, 440, 442, 097, 972, 725, 251, 034, 086, 094, 098, 074, 078, 056, 088, 044, 004, 008
          POWERTRAILS_COMBOS_SYSTEM_FULL_COMBOS C 202 10-22-2016 M 21 641, 685, 412, 430, 837, 859, 648, 413, 483, 835, 127, 173, 370, 305, 502, 902, 973, 021, 054, 758, 736, 907, 025, 075, 753, 218, 285, 584, 543, 341, 648, 481, 813, 135, 609, 627, 649, 642, 689, 682, 637, 622, 699, 669, 662, 907, 072, 725, 253, 946, 918, 906, 901, 976, 971, 958, 911, 966, 996, 991
          POWERTRAILS_COMBOS_SYSTEM_FULL_COMBOS C 202 10-22-2016 M 30 318, 362, 185, 149, 647, 620, 316, 184, 164, 642, 857, 874, 479, 492, 295, 095, 074, 958, 921, 726, 743, 097, 952, 972, 724, 586, 562, 261, 214, 418, 316, 168, 684, 842, 390, 357, 310, 315, 360, 365, 347, 355, 300, 330, 335, 097, 975, 752, 524, 013, 086, 093, 098, 073, 078, 026, 088, 033, 003, 008
          POWERTRAILS_COMBOS_SYSTEM_FULL_COMBOS C 202 10-22-2016 M 7 536, 528, 364, 317, 210, 289, 532, 361, 321, 218, 640, 601, 107, 178, 874, 974, 901, 746, 783, 082, 015, 970, 748, 708, 081, 462, 428, 823, 831, 136, 532, 326, 261, 618, 579, 540, 539, 534, 529, 524, 510, 544, 599, 559, 554, 970, 704, 048, 481, 935, 962, 975, 976, 905, 906, 982, 966, 955, 995, 996


          POWERTRAILS_COMBOS_SYSTEM_FULL_COMBOS C 968 10-22-2016 E 10 324, 351, 248, 267, 560, 519, 325, 246, 256, 561, 480, 406, 607, 671, 178, 978, 906, 784, 712, 015, 063, 970, 781, 701, 016, 845, 851, 152, 126, 624, 325, 254, 546, 461, 379, 380, 329, 328, 359, 358, 360, 388, 399, 339, 338, 970, 708, 081, 816, 923, 945, 973, 974, 903, 904, 915, 944, 933, 993, 994
          POWERTRAILS_COMBOS_SYSTEM_FULL_COMBOS C 968 10-22-2016 E 14 425, 436, 251, 280, 387, 369, 423, 258, 238, 386, 517, 578, 870, 806, 601, 901, 978, 015, 062, 763, 784, 907, 016, 076, 768, 153, 136, 632, 628, 825, 423, 235, 358, 586, 409, 417, 429, 421, 439, 431, 487, 411, 499, 449, 441, 907, 071, 716, 168, 924, 953, 904, 905, 974, 975, 963, 955, 944, 994, 995
          POWERTRAILS_COMBOS_SYSTEM_FULL_COMBOS C 968 10-22-2016 E 21 681, 642, 815, 837, 430, 429, 684, 813, 843, 432, 150, 103, 307, 372, 275, 975, 903, 751, 728, 024, 036, 970, 752, 702, 023, 514, 542, 248, 283, 381, 684, 841, 413, 132, 679, 650, 689, 685, 649, 645, 630, 655, 699, 669, 665, 970, 705, 052, 523, 986, 914, 976, 971, 906, 901, 924, 911, 966, 996, 991
          POWERTRAILS_COMBOS_SYSTEM_FULL_COMBOS C 968 10-22-2016 E 30 361, 324, 615, 687, 280, 249, 362, 618, 628, 284, 150, 108, 807, 874, 475, 975, 908, 751, 746, 042, 083, 970, 754, 704, 048, 512, 524, 426, 468, 861, 362, 621, 218, 184, 379, 350, 369, 365, 329, 325, 380, 355, 399, 339, 335, 970, 705, 054, 548, 963, 912, 973, 971, 903, 901, 942, 911, 933, 993, 991
          POWERTRAILS_COMBOS_SYSTEM_FULL_COMBOS C 968 10-22-2016 E 7 251, 236, 518, 547, 340, 369, 253, 514, 534, 346, 180, 104, 407, 476, 678, 978, 904, 781, 765, 063, 042, 970, 786, 706, 064, 813, 836, 635, 654, 451, 253, 531, 314, 146, 279, 280, 259, 258, 239, 238, 240, 288, 299, 229, 228, 970, 708, 086, 864, 952, 913, 972, 971, 902, 901, 963, 911, 922, 992, 991


          POWERTRAILS_COMBOS_SYSTEM_FULL_COMBOS E 968 10-22-2016 E 10 316, 352, 164, 187, 589, 520, 315, 168, 158, 582, 649, 698, 897, 872, 274, 074, 098, 746, 721, 925, 983, 079, 742, 792, 928, 465, 452, 251, 218, 816, 315, 156, 568, 682, 370, 349, 310, 314, 350, 354, 389, 344, 300, 330, 334, 079, 794, 942, 428, 013, 065, 073, 076, 093, 096, 025, 066, 033, 003, 006
          POWERTRAILS_COMBOS_SYSTEM_FULL_COMBOS E 968 10-22-2016 E 14 384, 316, 842, 857, 159, 160, 381, 845, 815, 156, 429, 495, 597, 576, 672, 072, 095, 724, 768, 961, 953, 079, 726, 796, 965, 241, 216, 618, 685, 584, 381, 814, 145, 456, 370, 329, 380, 382, 310, 312, 359, 322, 300, 330, 332, 079, 792, 926, 265, 083, 041, 073, 074, 093, 094, 061, 044, 033, 003, 004
          POWERTRAILS_COMBOS_SYSTEM_FULL_COMBOS E 968 10-22-2016 E 21 835, 861, 359, 347, 642, 610, 836, 354, 364, 641, 592, 524, 427, 471, 179, 079, 024, 795, 713, 216, 248, 072, 791, 721, 214, 956, 961, 163, 134, 435, 836, 365, 654, 541, 870, 892, 830, 839, 860, 869, 842, 899, 800, 880, 889, 072, 729, 291, 914, 038, 056, 078, 075, 028, 025, 016, 055, 088, 008, 005
          POWERTRAILS_COMBOS_SYSTEM_FULL_COMBOS E 968 10-22-2016 E 30 386, 324, 869, 850, 257, 241, 382, 865, 825, 254, 697, 675, 570, 504, 409, 109, 175, 096, 048, 742, 753, 107, 094, 074, 745, 962, 924, 428, 485, 586, 382, 826, 265, 654, 301, 397, 381, 389, 321, 329, 357, 399, 311, 331, 339, 107, 079, 794, 945, 183, 162, 103, 106, 173, 176, 142, 166, 133, 113, 116
          POWERTRAILS_COMBOS_SYSTEM_FULL_COMBOS E 968 10-22-2016 E 7 318, 352, 186, 147, 549, 520, 315, 184, 154, 542, 869, 894, 497, 472, 276, 076, 094, 768, 721, 925, 943, 079, 762, 792, 924, 685, 652, 251, 214, 418, 315, 158, 584, 842, 370, 369, 310, 316, 350, 356, 349, 366, 300, 330, 336, 079, 796, 962, 624, 013, 085, 073, 078, 093, 098, 025, 088, 033, 003, 008


          POWERTRAILS_COMBOS_SYSTEM_FULL_COMBOS M 202 10-22-2016 M 10 426, 458, 260, 273, 571, 589, 425, 267, 257, 578, 601, 617, 713, 738, 830, 930, 917, 306, 382, 185, 174, 931, 308, 318, 187, 065, 058, 852, 827, 726, 425, 256, 567, 678, 439, 401, 429, 420, 459, 450, 471, 400, 499, 449, 440, 931, 310, 108, 087, 924, 965, 934, 936, 914, 916, 985, 966, 944, 994, 996
          POWERTRAILS_COMBOS_SYSTEM_FULL_COMBOS M 202 10-22-2016 M 14 465, 421, 658, 673, 270, 219, 462, 657, 627, 271, 580, 507, 703, 731, 138, 938, 907, 385, 316, 012, 074, 930, 381, 301, 017, 852, 821, 126, 167, 765, 462, 625, 257, 571, 439, 480, 469, 468, 429, 428, 470, 488, 499, 449, 448, 930, 308, 081, 817, 964, 952, 934, 935, 904, 905, 912, 955, 944, 994, 995
          POWERTRAILS_COMBOS_SYSTEM_FULL_COMBOS M 202 10-22-2016 M 21 462, 417, 628, 653, 150, 179, 461, 625, 615, 157, 280, 205, 503, 537, 738, 938, 905, 382, 376, 071, 054, 930, 387, 307, 075, 821, 817, 716, 765, 562, 461, 612, 125, 257, 439, 480, 469, 468, 419, 418, 450, 488, 499, 449, 448, 930, 308, 087, 875, 964, 921, 934, 932, 904, 902, 971, 922, 944, 994, 992
          POWERTRAILS_COMBOS_SYSTEM_FULL_COMBOS M 202 10-22-2016 M 30 142, 168, 427, 459, 653, 680, 146, 425, 465, 658, 273, 235, 539, 598, 897, 097, 035, 972, 984, 386, 351, 093, 978, 938, 385, 726, 768, 864, 845, 542, 146, 462, 625, 258, 190, 173, 140, 147, 160, 167, 153, 177, 100, 110, 117, 093, 937, 378, 785, 041, 026, 091, 092, 031, 032, 086, 022, 011, 001, 002
          POWERTRAILS_COMBOS_SYSTEM_FULL_COMBOS M 202 10-22-2016 M 7 520, 567, 208, 243, 641, 679, 526, 204, 264, 647, 081, 014, 413, 437, 738, 938, 914, 380, 372, 176, 145, 931, 387, 317, 174, 806, 867, 762, 724, 420, 526, 260, 604, 047, 539, 581, 529, 528, 569, 568, 541, 588, 599, 559, 558, 931, 318, 187, 874, 925, 906, 935, 930, 915, 910, 976, 900, 955, 995, 990

          RINGS_OF_PI_KOLA_COMBOS_SYSTEM_FULL_COMBOS C 202 10-22-2016 M 10 081, 192, 303, 414, 525, 636, 747, 858, 969, 081, 086, 121, 581, 197, 242, 692, 308, 353, 803, 419, 464, 914, 530, 575, 026, 631, 586, 126, 742, 697, 247, 853, 808, 358, 964, 919, 469, 076, 031, 580, 081, 029, 140, 251, 362, 473, 584, 695, 806, 917, 076, 041, 418, 034, 079, 529, 145, 190, 640, 256, 301, 751, 367, 412, 862, 468, 423, 036, 579, 534, 084, 690, 645, 195, 801, 756, 306, 912, 867, 417, 081, 099, 116, 134, 152, 169, 187, 205, 222, 240, 082, 087, 161, 099, 107, 178, 117, 124, 196, 135, 142, 214, 152, 160, 231, 168, 161, 088, 186, 179, 107, 204, 197, 125, 221, 214, 143, 239, 232, 160, 081, 063, 046, 028, 010, 006, 024, 042, 059, 077, 080, 075, 001, 063, 055, 015, 045, 038, 033, 027, 020, 051, 010, 002, 068, 006, 001, 074, 023, 016, 055, 041, 034, 037, 058, 051, 019, 076, 069, 002
          RINGS_OF_PI_KOLA_COMBOS_SYSTEM_FULL_COMBOS C 202 10-22-2016 M 3 082, 193, 304, 415, 526, 637, 748, 859, 970, 082, 087, 122, 582, 198, 243, 693, 309, 354, 804, 420, 465, 915, 531, 576, 027, 632, 587, 127, 743, 698, 248, 854, 809, 359, 965, 920, 470, 077, 032, 581, 082, 028, 139, 250, 361, 472, 583, 694, 805, 916, 077, 042, 417, 033, 078, 528, 144, 189, 639, 255, 300, 750, 366, 411, 861, 467, 422, 037, 578, 533, 083, 689, 644, 194, 800, 755, 305, 911, 866, 416, 082, 099, 117, 135, 152, 170, 188, 205, 223, 241, 082, 088, 161, 100, 107, 179, 118, 125, 197, 135, 143, 214, 153, 160, 232, 169, 162, 089, 187, 180, 108, 205, 197, 126, 222, 215, 143, 240, 233, 161, 082, 064, 046, 029, 011, 006, 023, 041, 059, 076, 081, 075, 002, 063, 056, 015, 046, 038, 032, 028, 021, 050, 010, 003, 067, 005, 001, 075, 022, 015, 055, 040, 033, 038, 058, 051, 020, 075, 068, 002
          RINGS_OF_PI_KOLA_COMBOS_SYSTEM_FULL_COMBOS C 202 10-22-2016 M 5 082, 193, 304, 415, 526, 637, 748, 859, 970, 082, 087, 122, 582, 198, 243, 693, 309, 354, 804, 420, 465, 915, 531, 576, 027, 632, 587, 127, 743, 698, 248, 854, 809, 359, 965, 920, 470, 077, 032, 581, 082, 028, 139, 250, 361, 472, 583, 694, 805, 916, 077, 042, 417, 033, 078, 528, 144, 189, 639, 255, 300, 750, 366, 411, 861, 467, 422, 037, 578, 533, 083, 689, 644, 194, 800, 755, 305, 911, 866, 416, 082, 100, 117, 135, 152, 170, 188, 205, 223, 241, 083, 088, 161, 100, 107, 179, 118, 125, 197, 136, 143, 214, 153, 160, 232, 169, 162, 089, 187, 180, 108, 205, 198, 126, 222, 215, 144, 240, 233, 161, 082, 064, 047, 029, 011, 005, 023, 041, 058, 076, 081, 075, 002, 063, 056, 014, 046, 039, 032, 028, 021, 050, 010, 003, 067, 005, 002, 075, 022, 015, 055, 040, 033, 038, 058, 050, 020, 075, 068, 002
          RINGS_OF_PI_KOLA_COMBOS_SYSTEM_FULL_COMBOS C 202 10-22-2016 M 7 079, 190, 301, 412, 523, 634, 745, 856, 967, 079, 084, 119, 579, 195, 240, 690, 306, 351, 801, 417, 462, 912, 528, 573, 024, 629, 584, 124, 740, 695, 245, 851, 806, 356, 962, 917, 467, 074, 029, 578, 079, 031, 142, 253, 364, 475, 586, 697, 808, 919, 074, 039, 420, 036, 081, 531, 147, 192, 642, 258, 303, 753, 369, 414, 864, 470, 425, 034, 581, 536, 086, 692, 647, 197, 803, 758, 308, 914, 869, 419, 079, 097, 114, 132, 150, 167, 185, 203, 220, 238, 080, 085, 159, 097, 105, 176, 115, 122, 194, 133, 140, 211, 150, 158, 229, 166, 159, 086, 184, 177, 105, 202, 195, 123, 219, 212, 141, 237, 230, 158, 079, 061, 044, 026, 008, 008, 026, 044, 061, 079, 078, 073, 000, 061, 053, 017, 043, 036, 035, 025, 018, 053, 008, 000, 070, 008, 000, 072, 025, 018, 053, 043, 036, 035, 061, 053, 017, 078, 071, 000

          RINGS_OF_PI_KOLA_COMBOS_SYSTEM_FULL_COMBOS C 968 10-22-2016 E 10 077, 188, 299, 410, 521, 632, 743, 854, 965, 077, 082, 117, 577, 193, 238, 688, 304, 349, 799, 415, 460, 910, 526, 571, 022, 627, 582, 122, 738, 693, 243, 849, 804, 354, 960, 915, 465, 072, 027, 576, 077, 033, 144, 255, 366, 477, 588, 699, 810, 921, 072, 037, 422, 038, 083, 533, 149, 194, 644, 260, 305, 755, 371, 416, 866, 472, 427, 032, 583, 538, 088, 694, 649, 199, 805, 760, 310, 916, 871, 421, 077, 095, 112, 130, 148, 165, 183, 201, 218, 236, 078, 083, 157, 096, 103, 174, 113, 120, 192, 131, 138, 210, 149, 156, 227, 165, 157, 084, 182, 175, 104, 200, 193, 121, 218, 210, 139, 235, 228, 157, 077, 059, 042, 024, 006, 010, 028, 045, 063, 081, 076, 071, 001, 059, 052, 019, 041, 034, 037, 023, 016, 054, 006, 000, 072, 009, 002, 070, 027, 020, 051, 045, 038, 033, 062, 055, 015, 080, 073, 001
          RINGS_OF_PI_KOLA_COMBOS_SYSTEM_FULL_COMBOS C 968 10-22-2016 E 3 080, 191, 302, 413, 524, 635, 746, 857, 968, 080, 085, 120, 580, 196, 241, 691, 307, 352, 802, 418, 463, 913, 529, 574, 025, 630, 585, 125, 741, 696, 246, 852, 807, 357, 963, 918, 468, 075, 030, 579, 080, 030, 141, 252, 363, 474, 585, 696, 807, 918, 075, 040, 419, 035, 080, 530, 146, 191, 641, 257, 302, 752, 368, 413, 863, 469, 424, 035, 580, 535, 085, 691, 646, 196, 802, 757, 307, 913, 868, 418, 080, 097, 115, 133, 150, 168, 185, 203, 221, 238, 080, 086, 159, 098, 105, 177, 116, 123, 194, 133, 140, 212, 151, 158, 230, 167, 160, 087, 185, 178, 106, 202, 195, 124, 220, 213, 141, 238, 231, 159, 080, 062, 044, 027, 009, 008, 025, 043, 061, 078, 079, 073, 000, 061, 054, 017, 043, 036, 034, 026, 019, 052, 008, 001, 070, 007, 000, 072, 025, 017, 053, 042, 035, 035, 060, 053, 018, 078, 070, 000
          RINGS_OF_PI_KOLA_COMBOS_SYSTEM_FULL_COMBOS C 968 10-22-2016 E 5 075, 186, 297, 408, 519, 630, 741, 852, 963, 075, 080, 115, 575, 191, 236, 686, 302, 347, 797, 413, 458, 908, 524, 569, 020, 625, 580, 120, 736, 691, 241, 847, 802, 352, 958, 913, 463, 070, 025, 574, 075, 035, 146, 257, 368, 479, 590, 701, 812, 923, 070, 035, 424, 040, 085, 535, 151, 196, 646, 262, 307, 757, 373, 418, 868, 474, 429, 030, 585, 540, 090, 696, 651, 201, 807, 762, 312, 918, 873, 423, 075, 092, 110, 127, 145, 163, 180, 198, 216, 233, 075, 081, 154, 093, 100, 172, 111, 118, 189, 128, 135, 207, 146, 153, 225, 162, 155, 082, 180, 173, 101, 197, 190, 119, 215, 208, 136, 233, 225, 154, 075, 057, 039, 022, 004, 013, 030, 048, 066, 083, 074, 068, 004, 056, 049, 022, 038, 031, 039, 021, 014, 057, 003, 003, 075, 012, 005, 067, 030, 022, 048, 047, 040, 030, 065, 058, 013, 083, 075, 004
          RINGS_OF_PI_KOLA_COMBOS_SYSTEM_FULL_COMBOS C 968 10-22-2016 E 7 073, 184, 295, 406, 517, 628, 739, 850, 961, 073, 078, 113, 573, 189, 234, 684, 300, 345, 795, 411, 456, 906, 522, 567, 018, 623, 578, 118, 734, 689, 239, 845, 800, 350, 956, 911, 461, 068, 023, 572, 073, 037, 148, 259, 370, 481, 592, 703, 814, 925, 068, 033, 426, 042, 087, 537, 153, 198, 648, 264, 309, 759, 375, 420, 870, 476, 431, 028, 587, 542, 092, 698, 653, 203, 809, 764, 314, 920, 875, 425, 073, 091, 109, 126, 144, 162, 179, 197, 215, 232, 074, 080, 153, 092, 099, 171, 110, 117, 188, 127, 134, 206, 145, 152, 224, 161, 154, 081, 179, 171, 100, 196, 189, 117, 214, 207, 135, 232, 224, 153, 073, 056, 038, 020, 003, 014, 032, 049, 067, 085, 073, 067, 005, 055, 048, 023, 037, 030, 040, 020, 012, 058, 002, 004, 076, 013, 006, 066, 031, 024, 047, 048, 041, 029, 066, 059, 012, 084, 077, 005

          RINGS_OF_PI_KOLA_COMBOS_SYSTEM_FULL_COMBOS E 968 10-22-2016 E 10 078, 189, 300, 411, 522, 633, 744, 855, 966, 078, 083, 118, 578, 194, 239, 689, 305, 350, 800, 416, 461, 911, 527, 572, 023, 628, 583, 123, 739, 694, 244, 850, 805, 355, 961, 916, 466, 073, 028, 577, 078, 032, 143, 254, 365, 476, 587, 698, 809, 920, 073, 038, 421, 037, 082, 532, 148, 193, 643, 259, 304, 754, 370, 415, 865, 471, 426, 033, 582, 537, 087, 693, 648, 198, 804, 759, 309, 915, 870, 420, 078, 096, 114, 131, 149, 167, 184, 202, 220, 237, 079, 085, 158, 097, 104, 175, 114, 122, 193, 132, 139, 211, 150, 157, 228, 166, 159, 085, 183, 176, 105, 201, 194, 122, 219, 212, 140, 236, 229, 158, 078, 061, 043, 025, 008, 009, 027, 044, 062, 080, 077, 072, 000, 060, 053, 018, 042, 035, 036, 025, 017, 053, 007, 000, 071, 008, 001, 071, 026, 019, 052, 044, 036, 034, 061, 054, 017, 079, 072, 000
          RINGS_OF_PI_KOLA_COMBOS_SYSTEM_FULL_COMBOS E 968 10-22-2016 E 3 076, 187, 298, 409, 520, 631, 742, 853, 964, 076, 081, 116, 576, 192, 237, 687, 303, 348, 798, 414, 459, 909, 525, 570, 021, 626, 581, 121, 737, 692, 242, 848, 803, 353, 959, 914, 464, 071, 026, 575, 076, 034, 145, 256, 367, 478, 589, 700, 811, 922, 071, 036, 423, 039, 084, 534, 150, 195, 645, 261, 306, 756, 372, 417, 867, 473, 428, 031, 584, 539, 089, 695, 650, 200, 806, 761, 311, 917, 872, 422, 076, 093, 111, 129, 146, 164, 182, 199, 217, 234, 076, 082, 155, 094, 101, 173, 112, 119, 190, 129, 136, 208, 147, 154, 226, 163, 156, 083, 181, 174, 102, 198, 191, 120, 216, 209, 137, 234, 227, 155, 076, 058, 040, 023, 005, 012, 029, 047, 065, 082, 075, 069, 003, 057, 050, 021, 039, 032, 038, 022, 015, 056, 004, 002, 074, 011, 004, 068, 029, 021, 049, 046, 039, 031, 064, 057, 014, 082, 074, 003
          RINGS_OF_PI_KOLA_COMBOS_SYSTEM_FULL_COMBOS E 968 10-22-2016 E 5 078, 189, 300, 411, 522, 633, 744, 855, 966, 078, 083, 118, 578, 194, 239, 689, 305, 350, 800, 416, 461, 911, 527, 572, 023, 628, 583, 123, 739, 694, 244, 850, 805, 355, 961, 916, 466, 073, 028, 577, 078, 032, 143, 254, 365, 476, 587, 698, 809, 920, 073, 038, 421, 037, 082, 532, 148, 193, 643, 259, 304, 754, 370, 415, 865, 471, 426, 033, 582, 537, 087, 693, 648, 198, 804, 759, 309, 915, 870, 420, 078, 095, 113, 131, 148, 166, 184, 201, 219, 237, 079, 084, 157, 096, 103, 175, 114, 121, 193, 132, 139, 210, 149, 156, 228, 165, 158, 085, 183, 176, 104, 201, 193, 122, 218, 211, 140, 236, 229, 157, 078, 060, 043, 025, 007, 009, 027, 045, 062, 080, 077, 071, 001, 059, 052, 018, 042, 035, 036, 024, 017, 054, 006, 000, 071, 009, 002, 071, 026, 019, 051, 044, 037, 034, 062, 054, 016, 079, 072, 001
          RINGS_OF_PI_KOLA_COMBOS_SYSTEM_FULL_COMBOS E 968 10-22-2016 E 7 071, 182, 293, 404, 515, 626, 737, 848, 959, 071, 076, 111, 571, 187, 232, 682, 298, 343, 793, 409, 454, 904, 520, 565, 016, 621, 576, 116, 732, 687, 237, 843, 798, 348, 954, 909, 459, 066, 021, 570, 071, 039, 150, 261, 372, 483, 594, 705, 816, 927, 066, 031, 428, 044, 089, 539, 155, 200, 650, 266, 311, 761, 377, 422, 872, 478, 433, 026, 589, 544, 094, 700, 655, 205, 811, 766, 316, 922, 877, 427, 071, 089, 107, 124, 142, 159, 177, 195, 212, 230, 072, 078, 151, 090, 097, 168, 107, 114, 186, 125, 132, 204, 143, 150, 221, 159, 152, 078, 176, 169, 098, 194, 187, 115, 212, 205, 133, 229, 222, 151, 071, 054, 036, 018, 001, 016, 034, 051, 069, 087, 070, 065, 007, 053, 046, 025, 035, 028, 043, 017, 010, 060, 000, 006, 078, 015, 008, 064, 033, 026, 045, 051, 043, 027, 068, 061, 009, 086, 079, 007

          RINGS_OF_PI_KOLA_COMBOS_SYSTEM_FULL_COMBOS M 202 10-22-2016 M 10 094, 205, 316, 427, 538, 649, 760, 871, 982, 094, 099, 134, 594, 210, 255, 705, 321, 366, 816, 432, 477, 927, 543, 588, 039, 644, 599, 139, 755, 710, 260, 866, 821, 371, 977, 932, 482, 089, 044, 593, 094, 016, 127, 238, 349, 460, 571, 682, 793, 904, 089, 054, 405, 021, 066, 516, 132, 177, 627, 243, 288, 738, 354, 399, 849, 455, 410, 049, 566, 521, 071, 677, 632, 182, 788, 743, 293, 899, 854, 404, 094, 112, 130, 147, 165, 183, 200, 218, 236, 253, 095, 101, 174, 113, 120, 191, 130, 138, 209, 148, 155, 227, 166, 173, 244, 182, 175, 101, 199, 192, 121, 217, 210, 138, 235, 228, 156, 252, 245, 174, 094, 077, 059, 041, 024, 006, 011, 028, 046, 064, 093, 088, 015, 076, 069, 002, 058, 051, 020, 040, 033, 037, 023, 016, 055, 007, 014, 087, 010, 003, 068, 028, 020, 050, 045, 038, 033, 063, 056, 015
          RINGS_OF_PI_KOLA_COMBOS_SYSTEM_FULL_COMBOS M 202 10-22-2016 M 3 070, 181, 292, 403, 514, 625, 736, 847, 958, 070, 075, 110, 570, 186, 231, 681, 297, 342, 792, 408, 453, 903, 519, 564, 015, 620, 575, 115, 731, 686, 236, 842, 797, 347, 953, 908, 458, 065, 020, 569, 070, 040, 151, 262, 373, 484, 595, 706, 817, 928, 065, 030, 429, 045, 090, 540, 156, 201, 651, 267, 312, 762, 378, 423, 873, 479, 434, 025, 590, 545, 095, 701, 656, 206, 812, 767, 317, 923, 878, 428, 070, 088, 106, 123, 141, 158, 176, 194, 211, 229, 071, 077, 150, 089, 096, 167, 106, 113, 185, 124, 131, 203, 142, 149, 220, 158, 151, 077, 175, 168, 097, 193, 186, 114, 211, 204, 132, 228, 221, 150, 070, 053, 035, 017, 000, 017, 035, 052, 070, 088, 069, 064, 008, 052, 045, 026, 034, 027, 044, 016, 009, 061, 000, 007, 079, 016, 009, 063, 034, 027, 044, 052, 044, 026, 069, 062, 008, 087, 080, 008
          RINGS_OF_PI_KOLA_COMBOS_SYSTEM_FULL_COMBOS M 202 10-22-2016 M 5 086, 197, 308, 419, 530, 641, 752, 863, 974, 086, 091, 126, 586, 202, 247, 697, 313, 358, 808, 424, 469, 919, 535, 580, 031, 636, 591, 131, 747, 702, 252, 858, 813, 363, 969, 924, 474, 081, 036, 585, 086, 024, 135, 246, 357, 468, 579, 690, 801, 912, 081, 046, 413, 029, 074, 524, 140, 185, 635, 251, 296, 746, 362, 407, 857, 463, 418, 041, 574, 529, 079, 685, 640, 190, 796, 751, 301, 907, 862, 412, 086, 104, 121, 139, 157, 174, 192, 210, 227, 245, 087, 092, 165, 104, 112, 183, 122, 129, 201, 140, 147, 218, 157, 164, 236, 173, 166, 093, 191, 184, 112, 209, 202, 130, 226, 219, 148, 244, 237, 165, 086, 068, 051, 033, 015, 001, 019, 037, 054, 072, 085, 080, 006, 067, 060, 010, 050, 043, 028, 032, 025, 046, 014, 007, 063, 001, 006, 079, 018, 011, 059, 036, 029, 042, 054, 046, 024, 071, 064, 007
          RINGS_OF_PI_KOLA_COMBOS_SYSTEM_FULL_COMBOS M 202 10-22-2016 M 7 094, 205, 316, 427, 538, 649, 760, 871, 982, 094, 099, 134, 594, 210, 255, 705, 321, 366, 816, 432, 477, 927, 543, 588, 039, 644, 599, 139, 755, 710, 260, 866, 821, 371, 977, 932, 482, 089, 044, 593, 094, 016, 127, 238, 349, 460, 571, 682, 793, 904, 089, 054, 405, 021, 066, 516, 132, 177, 627, 243, 288, 738, 354, 399, 849, 455, 410, 049, 566, 521, 071, 677, 632, 182, 788, 743, 293, 899, 854, 404, 094, 112, 130, 147, 165, 183, 200, 218, 236, 253, 095, 101, 174, 113, 120, 192, 130, 138, 209, 148, 155, 227, 166, 173, 245, 182, 175, 101, 199, 192, 121, 217, 210, 138, 235, 228, 156, 252, 245, 174, 094, 077, 059, 041, 024, 006, 011, 028, 046, 064, 094, 088, 015, 076, 069, 002, 058, 051, 020, 041, 033, 037, 023, 016, 055, 007, 014, 087, 010, 003, 068, 028, 020, 050, 045, 038, 033, 063, 056, 015

          waste of space...

            Wheeler's avatar - Lottery-023.jpg
            Pittsburg, Ks
            United States
            Member #3382
            January 17, 2004
            80807 Posts
            Online
            Posted: October 23, 2016, 8:28 pm - IP Logged

            10/24/16 M/E

            +22 451

            45 41 51

            67 63 73

            89 85 95

            01 07 17

            23 29 39

             God Bless America

             

            US Flag

              thamizhpayan's avatar - Lottery-052.jpg

              United States
              Member #173017
              February 13, 2016
              492 Posts
              Offline
              Posted: October 24, 2016, 2:22 am - IP Logged

              Monday

              Tier 3
              289(298,928)

              Tier 2
              041(140) 045(054) 145(154) 347(734) 609(906) 617(716)

              Tier 1
              018 019 126 127 135 208 324 325 329 419 456 528 608 618 725 735 739 897 924 938

                Avatar
                ORF
                United States
                Member #157557
                July 23, 2014
                1689 Posts
                Online
                Posted: October 25, 2016, 4:57 am - IP Logged

                Tuesday mid/eve - 876

                Good Luck!!!

                  Wheeler's avatar - Lottery-023.jpg
                  Pittsburg, Ks
                  United States
                  Member #3382
                  January 17, 2004
                  80807 Posts
                  Online
                  Posted: October 25, 2016, 7:55 am - IP Logged

                  10/25/16 M/E

                  +22 873

                  87 83 73

                  09 05 95

                  21 27 17

                  43 49 39

                  65 61 51 

                   God Bless America

                   

                  US Flag

                    Avatar
                    ORF
                    United States
                    Member #157557
                    July 23, 2014
                    1689 Posts
                    Online
                    Posted: October 26, 2016, 5:56 pm - IP Logged

                    Wednesday eve - 929 691

                    Good Luck!!!

                      Wheeler's avatar - Lottery-023.jpg
                      Pittsburg, Ks
                      United States
                      Member #3382
                      January 17, 2004
                      80807 Posts
                      Online
                      Posted: October 26, 2016, 7:14 pm - IP Logged

                      10/27 16 M/E

                      +22 822

                      82 22

                      04 44

                      26 66

                      48 88

                      60 00

                       God Bless America

                       

                      US Flag

                        Avatar
                        ORF
                        United States
                        Member #157557
                        July 23, 2014
                        1689 Posts
                        Online
                        Posted: October 27, 2016, 6:02 pm - IP Logged

                        Thursday eve - 223 673

                        Good Luck!!!

                          Wheeler's avatar - Lottery-023.jpg
                          Pittsburg, Ks
                          United States
                          Member #3382
                          January 17, 2004
                          80807 Posts
                          Online
                          Posted: October 27, 2016, 7:39 pm - IP Logged

                          10/28/16 M/E

                          +22 866

                          86 66

                          08 88

                          20 00

                          42 22

                          64 44

                           God Bless America

                           

                          US Flag

                            Wheeler's avatar - Lottery-023.jpg
                            Pittsburg, Ks
                            United States
                            Member #3382
                            January 17, 2004
                            80807 Posts
                            Online
                            Posted: October 29, 2016, 8:17 am - IP Logged

                            10/29/16 M/E

                            +22 568

                            56 58 68

                            78 70 80

                            90 92 02

                            12 14 24

                            34 36 46

                             God Bless America

                             

                            US Flag

                              phantom3's avatar - Lottery-005.jpg
                              iowa
                              United States
                              Member #81631
                              October 25, 2009
                              114 Posts
                              Offline
                              Posted: October 29, 2016, 5:00 pm - IP Logged

                              Midday winning numbers for Saturday   10/29/2016  #  761     Pumpkin